<?xml version="1.0" encoding="UTF-8" standalone="no" ?>
<gpx xmlns="http://www.topografix.com/GPX/1/1" xmlns:xsi="http://www.w3.org/2001/XMLSchema-instance" xsi:schemaLocation="http://www.topografix.com/GPX/1/1 http://www.topografix.com/GPX/1/1/gpx.xsd" version="1.1" creator="VisuGPX - https://www.visugpx.com">
  <metadata>
    <name>Les Terres Noires - Parcours 21 avec boucle crêtes</name>
    <desc><![CDATA[Ce parcours reprend le célèbre randuro [b]Les Terres Noires n° 21[/b] auquel est ajouté une boucle par les crêtes]]></desc>
  </metadata>
  <trk>
    <name><![CDATA[Les Terres Noires - Parcours 21 avec boucle crêtes]]></name>
    <trkseg>
      <trkpt lat="44.08745" lon="6.31158">
        <ele>981.41</ele>
        <time>2024-04-21T14:41:02.000Z</time>
      </trkpt>
      <trkpt lat="44.08733" lon="6.31179">
        <ele>982.82</ele>
        <time>2024-04-21T14:41:02.009Z</time>
      </trkpt>
      <trkpt lat="44.08707" lon="6.31193">
        <ele>983.86</ele>
        <time>2024-04-21T14:41:02.030Z</time>
      </trkpt>
      <trkpt lat="44.08712" lon="6.31219">
        <ele>985.82</ele>
        <time>2024-04-21T14:41:02.060Z</time>
      </trkpt>
      <trkpt lat="44.08744" lon="6.31202">
        <ele>987.95</ele>
        <time>2024-04-21T14:41:02.105Z</time>
      </trkpt>
      <trkpt lat="44.0877" lon="6.3118">
        <ele>989.87</ele>
        <time>2024-04-21T14:41:02.164Z</time>
      </trkpt>
      <trkpt lat="44.08785" lon="6.31163">
        <ele>991.65</ele>
        <time>2024-04-21T14:41:02.231Z</time>
      </trkpt>
      <trkpt lat="44.08807" lon="6.31164">
        <ele>993.59</ele>
        <time>2024-04-21T14:41:02.308Z</time>
      </trkpt>
      <trkpt lat="44.08851" lon="6.31196">
        <ele>995.87</ele>
        <time>2024-04-21T14:41:02.407Z</time>
      </trkpt>
      <trkpt lat="44.08874" lon="6.31208">
        <ele>998.12</ele>
        <time>2024-04-21T14:41:02.517Z</time>
      </trkpt>
      <trkpt lat="44.089" lon="6.31212">
        <ele>1000.45</ele>
        <time>2024-04-21T14:41:02.639Z</time>
      </trkpt>
      <trkpt lat="44.08919" lon="6.31219">
        <ele>1002.66</ele>
        <time>2024-04-21T14:41:02.770Z</time>
      </trkpt>
      <trkpt lat="44.08942" lon="6.31273">
        <ele>1005.3</ele>
        <time>2024-04-21T14:41:02.921Z</time>
      </trkpt>
      <trkpt lat="44.0894" lon="6.31299">
        <ele>1007.78</ele>
        <time>2024-04-21T14:41:03.080Z</time>
      </trkpt>
      <trkpt lat="44.08918" lon="6.31338">
        <ele>1010.28</ele>
        <time>2024-04-21T14:41:03.255Z</time>
      </trkpt>
      <trkpt lat="44.08894" lon="6.31346">
        <ele>1012.45</ele>
        <time>2024-04-21T14:41:03.441Z</time>
      </trkpt>
      <trkpt lat="44.08869" lon="6.31341">
        <ele>1014.4</ele>
        <time>2024-04-21T14:41:03.638Z</time>
      </trkpt>
      <trkpt lat="44.0885" lon="6.31353">
        <ele>1016.27</ele>
        <time>2024-04-21T14:41:03.844Z</time>
      </trkpt>
      <trkpt lat="44.0888" lon="6.31385">
        <ele>1018.11</ele>
        <time>2024-04-21T14:41:04.067Z</time>
      </trkpt>
      <trkpt lat="44.08914" lon="6.31424">
        <ele>1019.98</ele>
        <time>2024-04-21T14:41:04.310Z</time>
      </trkpt>
      <trkpt lat="44.08947" lon="6.31433">
        <ele>1021.68</ele>
        <time>2024-04-21T14:41:04.568Z</time>
      </trkpt>
      <trkpt lat="44.08979" lon="6.31426">
        <ele>1022.74</ele>
        <time>2024-04-21T14:41:04.840Z</time>
      </trkpt>
      <trkpt lat="44.09014" lon="6.31439">
        <ele>1023.7</ele>
        <time>2024-04-21T14:41:05.128Z</time>
      </trkpt>
      <trkpt lat="44.09032" lon="6.31441">
        <ele>1024.26</ele>
        <time>2024-04-21T14:41:05.424Z</time>
      </trkpt>
      <trkpt lat="44.09059" lon="6.31425">
        <ele>1024.49</ele>
        <time>2024-04-21T14:41:05.734Z</time>
      </trkpt>
      <trkpt lat="44.09097" lon="6.31399">
        <ele>1024.37</ele>
        <time>2024-04-21T14:41:06.062Z</time>
      </trkpt>
      <trkpt lat="44.09119" lon="6.31401">
        <ele>1024.05</ele>
        <time>2024-04-21T14:41:06.400Z</time>
      </trkpt>
      <trkpt lat="44.09132" lon="6.31445">
        <ele>1024.02</ele>
        <time>2024-04-21T14:41:06.753Z</time>
      </trkpt>
      <trkpt lat="44.09175" lon="6.31483">
        <ele>1023.74</ele>
        <time>2024-04-21T14:41:07.129Z</time>
      </trkpt>
      <trkpt lat="44.09221" lon="6.31492">
        <ele>1022.97</ele>
        <time>2024-04-21T14:41:07.526Z</time>
      </trkpt>
      <trkpt lat="44.09253" lon="6.31526">
        <ele>1022.42</ele>
        <time>2024-04-21T14:41:07.941Z</time>
      </trkpt>
      <trkpt lat="44.09279" lon="6.31575">
        <ele>1021.57</ele>
        <time>2024-04-21T14:41:08.375Z</time>
      </trkpt>
      <trkpt lat="44.09302" lon="6.31602">
        <ele>1020.52</ele>
        <time>2024-04-21T14:41:08.823Z</time>
      </trkpt>
      <trkpt lat="44.09329" lon="6.31595">
        <ele>1018.89</ele>
        <time>2024-04-21T14:41:09.283Z</time>
      </trkpt>
      <trkpt lat="44.09355" lon="6.31574">
        <ele>1016.9</ele>
        <time>2024-04-21T14:41:09.756Z</time>
      </trkpt>
      <trkpt lat="44.09374" lon="6.31598">
        <ele>1014.75</ele>
        <time>2024-04-21T14:41:10.240Z</time>
      </trkpt>
      <trkpt lat="44.09367" lon="6.31626">
        <ele>1013.25</ele>
        <time>2024-04-21T14:41:10.734Z</time>
      </trkpt>
      <trkpt lat="44.09364" lon="6.31676">
        <ele>1011.9</ele>
        <time>2024-04-21T14:41:11.244Z</time>
      </trkpt>
      <trkpt lat="44.09374" lon="6.31707">
        <ele>1010.24</ele>
        <time>2024-04-21T14:41:11.765Z</time>
      </trkpt>
      <trkpt lat="44.09406" lon="6.31719">
        <ele>1008.12</ele>
        <time>2024-04-21T14:41:12.301Z</time>
      </trkpt>
      <trkpt lat="44.09435" lon="6.31751">
        <ele>1005.89</ele>
        <time>2024-04-21T14:41:12.853Z</time>
      </trkpt>
      <trkpt lat="44.09436" lon="6.31778">
        <ele>1004.19</ele>
        <time>2024-04-21T14:41:13.414Z</time>
      </trkpt>
      <trkpt lat="44.09427" lon="6.31807">
        <ele>1002.99</ele>
        <time>2024-04-21T14:41:13.985Z</time>
      </trkpt>
      <trkpt lat="44.09428" lon="6.31835">
        <ele>1001.63</ele>
        <time>2024-04-21T14:41:14.565Z</time>
      </trkpt>
      <trkpt lat="44.09416" lon="6.3188">
        <ele>1000.63</ele>
        <time>2024-04-21T14:41:15.160Z</time>
      </trkpt>
      <trkpt lat="44.09427" lon="6.31918">
        <ele>999.2</ele>
        <time>2024-04-21T14:41:15.768Z</time>
      </trkpt>
      <trkpt lat="44.09413" lon="6.31947">
        <ele>998.65</ele>
        <time>2024-04-21T14:41:16.387Z</time>
      </trkpt>
      <trkpt lat="44.09424" lon="6.31967">
        <ele>997.71</ele>
        <time>2024-04-21T14:41:17.014Z</time>
      </trkpt>
      <trkpt lat="44.09452" lon="6.31983">
        <ele>996.44</ele>
        <time>2024-04-21T14:41:17.655Z</time>
      </trkpt>
      <trkpt lat="44.09468" lon="6.32023">
        <ele>995.82</ele>
        <time>2024-04-21T14:41:18.311Z</time>
      </trkpt>
      <trkpt lat="44.095" lon="6.32044">
        <ele>995.35</ele>
        <time>2024-04-21T14:41:18.982Z</time>
      </trkpt>
      <trkpt lat="44.0953" lon="6.32053">
        <ele>995.08</ele>
        <time>2024-04-21T14:41:19.667Z</time>
      </trkpt>
      <trkpt lat="44.09555" lon="6.32051">
        <ele>994.89</ele>
        <time>2024-04-21T14:41:20.363Z</time>
      </trkpt>
      <trkpt lat="44.09575" lon="6.32059">
        <ele>995.01</ele>
        <time>2024-04-21T14:41:21.068Z</time>
      </trkpt>
      <trkpt lat="44.09597" lon="6.32067">
        <ele>995.36</ele>
        <time>2024-04-21T14:41:21.784Z</time>
      </trkpt>
      <trkpt lat="44.0962" lon="6.32062">
        <ele>995.81</ele>
        <time>2024-04-21T14:41:22.510Z</time>
      </trkpt>
      <trkpt lat="44.09643" lon="6.31992">
        <ele>996.07</ele>
        <time>2024-04-21T14:41:23.260Z</time>
      </trkpt>
      <trkpt lat="44.09638" lon="6.31966">
        <ele>996.37</ele>
        <time>2024-04-21T14:41:24.019Z</time>
      </trkpt>
      <trkpt lat="44.09658" lon="6.31969">
        <ele>997.2</ele>
        <time>2024-04-21T14:41:24.787Z</time>
      </trkpt>
      <trkpt lat="44.09676" lon="6.31991">
        <ele>998.32</ele>
        <time>2024-04-21T14:41:25.566Z</time>
      </trkpt>
      <trkpt lat="44.09691" lon="6.32017">
        <ele>999.65</ele>
        <time>2024-04-21T14:41:26.355Z</time>
      </trkpt>
      <trkpt lat="44.09711" lon="6.3202">
        <ele>1000.85</ele>
        <time>2024-04-21T14:41:27.153Z</time>
      </trkpt>
      <trkpt lat="44.09734" lon="6.32022">
        <ele>1002.04</ele>
        <time>2024-04-21T14:41:27.961Z</time>
      </trkpt>
      <trkpt lat="44.09764" lon="6.32019">
        <ele>1003.37</ele>
        <time>2024-04-21T14:41:28.783Z</time>
      </trkpt>
      <trkpt lat="44.09784" lon="6.32018">
        <ele>1004.74</ele>
        <time>2024-04-21T14:41:29.614Z</time>
      </trkpt>
      <trkpt lat="44.09789" lon="6.31994">
        <ele>1005.98</ele>
        <time>2024-04-21T14:41:30.453Z</time>
      </trkpt>
      <trkpt lat="44.09821" lon="6.32016">
        <ele>1007.6</ele>
        <time>2024-04-21T14:41:31.308Z</time>
      </trkpt>
      <trkpt lat="44.09839" lon="6.32024">
        <ele>1009.26</ele>
        <time>2024-04-21T14:41:32.171Z</time>
      </trkpt>
      <trkpt lat="44.09832" lon="6.31997">
        <ele>1010.77</ele>
        <time>2024-04-21T14:41:33.044Z</time>
      </trkpt>
      <trkpt lat="44.09836" lon="6.31954">
        <ele>1012.51</ele>
        <time>2024-04-21T14:41:33.930Z</time>
      </trkpt>
      <trkpt lat="44.09861" lon="6.31954">
        <ele>1014.45</ele>
        <time>2024-04-21T14:41:34.827Z</time>
      </trkpt>
      <trkpt lat="44.09887" lon="6.31979">
        <ele>1016.63</ele>
        <time>2024-04-21T14:41:35.738Z</time>
      </trkpt>
      <trkpt lat="44.09905" lon="6.31991">
        <ele>1018.84</ele>
        <time>2024-04-21T14:41:36.658Z</time>
      </trkpt>
      <trkpt lat="44.09928" lon="6.31973">
        <ele>1021.01</ele>
        <time>2024-04-21T14:41:37.590Z</time>
      </trkpt>
      <trkpt lat="44.09934" lon="6.31946">
        <ele>1022.63</ele>
        <time>2024-04-21T14:41:38.531Z</time>
      </trkpt>
      <trkpt lat="44.09948" lon="6.31921">
        <ele>1024.26</ele>
        <time>2024-04-21T14:41:39.482Z</time>
      </trkpt>
      <trkpt lat="44.09983" lon="6.31894">
        <ele>1026.32</ele>
        <time>2024-04-21T14:41:40.451Z</time>
      </trkpt>
      <trkpt lat="44.1" lon="6.31874">
        <ele>1027.96</ele>
        <time>2024-04-21T14:41:41.430Z</time>
      </trkpt>
      <trkpt lat="44.10014" lon="6.31842">
        <ele>1029.34</ele>
        <time>2024-04-21T14:41:42.421Z</time>
      </trkpt>
      <trkpt lat="44.10027" lon="6.31787">
        <ele>1030.43</ele>
        <time>2024-04-21T14:41:43.430Z</time>
      </trkpt>
      <trkpt lat="44.10049" lon="6.3172">
        <ele>1031.08</ele>
        <time>2024-04-21T14:41:44.463Z</time>
      </trkpt>
      <trkpt lat="44.10069" lon="6.31705">
        <ele>1031.8</ele>
        <time>2024-04-21T14:41:45.506Z</time>
      </trkpt>
      <trkpt lat="44.10085" lon="6.31714">
        <ele>1032.5</ele>
        <time>2024-04-21T14:41:46.557Z</time>
      </trkpt>
      <trkpt lat="44.101" lon="6.3175">
        <ele>1033.24</ele>
        <time>2024-04-21T14:41:47.621Z</time>
      </trkpt>
      <trkpt lat="44.10118" lon="6.31797">
        <ele>1033.66</ele>
        <time>2024-04-21T14:41:48.702Z</time>
      </trkpt>
      <trkpt lat="44.10139" lon="6.31818">
        <ele>1033.73</ele>
        <time>2024-04-21T14:41:49.795Z</time>
      </trkpt>
      <trkpt lat="44.10162" lon="6.31827">
        <ele>1033.55</ele>
        <time>2024-04-21T14:41:50.898Z</time>
      </trkpt>
      <trkpt lat="44.1018" lon="6.31831">
        <ele>1033.27</ele>
        <time>2024-04-21T14:41:52.009Z</time>
      </trkpt>
      <trkpt lat="44.102" lon="6.3184">
        <ele>1032.99</ele>
        <time>2024-04-21T14:41:53.130Z</time>
      </trkpt>
      <trkpt lat="44.10211" lon="6.31842">
        <ele>1032.44</ele>
        <time>2024-04-21T14:41:54.256Z</time>
      </trkpt>
      <trkpt lat="44.10218" lon="6.31819">
        <ele>1031.57</ele>
        <time>2024-04-21T14:41:55.390Z</time>
      </trkpt>
      <trkpt lat="44.10217" lon="6.31748">
        <ele>1030.48</ele>
        <time>2024-04-21T14:41:56.547Z</time>
      </trkpt>
      <trkpt lat="44.10212" lon="6.31738">
        <ele>1029.02</ele>
        <time>2024-04-21T14:41:57.708Z</time>
      </trkpt>
      <trkpt lat="44.10229" lon="6.31696">
        <ele>1027.32</ele>
        <time>2024-04-21T14:41:58.884Z</time>
      </trkpt>
      <trkpt lat="44.10249" lon="6.31678">
        <ele>1025.45</ele>
        <time>2024-04-21T14:42:00.070Z</time>
      </trkpt>
      <trkpt lat="44.10269" lon="6.31649">
        <ele>1023.11</ele>
        <time>2024-04-21T14:42:01.270Z</time>
      </trkpt>
      <trkpt lat="44.10311" lon="6.3162">
        <ele>1020.37</ele>
        <time>2024-04-21T14:42:02.490Z</time>
      </trkpt>
      <trkpt lat="44.10309" lon="6.31599">
        <ele>1017.91</ele>
        <time>2024-04-21T14:42:03.717Z</time>
      </trkpt>
      <trkpt lat="44.10265" lon="6.31586">
        <ele>1015.59</ele>
        <time>2024-04-21T14:42:04.964Z</time>
      </trkpt>
      <trkpt lat="44.10249" lon="6.31557">
        <ele>1012.78</ele>
        <time>2024-04-21T14:42:06.223Z</time>
      </trkpt>
      <trkpt lat="44.10231" lon="6.31526">
        <ele>1009.84</ele>
        <time>2024-04-21T14:42:07.495Z</time>
      </trkpt>
      <trkpt lat="44.10257" lon="6.31496">
        <ele>1006.58</ele>
        <time>2024-04-21T14:42:08.781Z</time>
      </trkpt>
      <trkpt lat="44.10247" lon="6.31437">
        <ele>1003.47</ele>
        <time>2024-04-21T14:42:10.087Z</time>
      </trkpt>
      <trkpt lat="44.10253" lon="6.31407">
        <ele>1000.26</ele>
        <time>2024-04-21T14:42:11.403Z</time>
      </trkpt>
      <trkpt lat="44.10249" lon="6.3138">
        <ele>997.11</ele>
        <time>2024-04-21T14:42:12.728Z</time>
      </trkpt>
      <trkpt lat="44.10228" lon="6.31341">
        <ele>993.89</ele>
        <time>2024-04-21T14:42:14.068Z</time>
      </trkpt>
      <trkpt lat="44.10217" lon="6.31317">
        <ele>990.55</ele>
        <time>2024-04-21T14:42:15.417Z</time>
      </trkpt>
      <trkpt lat="44.10194" lon="6.31323">
        <ele>987.07</ele>
        <time>2024-04-21T14:42:16.777Z</time>
      </trkpt>
      <trkpt lat="44.10184" lon="6.313">
        <ele>983.55</ele>
        <time>2024-04-21T14:42:18.145Z</time>
      </trkpt>
      <trkpt lat="44.10178" lon="6.31272">
        <ele>979.86</ele>
        <time>2024-04-21T14:42:19.523Z</time>
      </trkpt>
      <trkpt lat="44.10164" lon="6.31253">
        <ele>976.14</ele>
        <time>2024-04-21T14:42:20.909Z</time>
      </trkpt>
      <trkpt lat="44.10146" lon="6.31231">
        <ele>972.26</ele>
        <time>2024-04-21T14:42:22.306Z</time>
      </trkpt>
      <trkpt lat="44.10158" lon="6.31211">
        <ele>968.64</ele>
        <time>2024-04-21T14:42:23.712Z</time>
      </trkpt>
      <trkpt lat="44.10146" lon="6.31186">
        <ele>964.77</ele>
        <time>2024-04-21T14:42:25.127Z</time>
      </trkpt>
      <trkpt lat="44.1013" lon="6.31165">
        <ele>960.97</ele>
        <time>2024-04-21T14:42:26.552Z</time>
      </trkpt>
      <trkpt lat="44.10106" lon="6.31163">
        <ele>957.32</ele>
        <time>2024-04-21T14:42:27.988Z</time>
      </trkpt>
      <trkpt lat="44.1009" lon="6.31141">
        <ele>953.67</ele>
        <time>2024-04-21T14:42:29.434Z</time>
      </trkpt>
      <trkpt lat="44.10105" lon="6.31098">
        <ele>950.24</ele>
        <time>2024-04-21T14:42:30.895Z</time>
      </trkpt>
      <trkpt lat="44.10106" lon="6.31065">
        <ele>946.69</ele>
        <time>2024-04-21T14:42:32.366Z</time>
      </trkpt>
      <trkpt lat="44.10088" lon="6.31035">
        <ele>943.19</ele>
        <time>2024-04-21T14:42:33.850Z</time>
      </trkpt>
      <trkpt lat="44.10039" lon="6.30972">
        <ele>939.54</ele>
        <time>2024-04-21T14:42:35.364Z</time>
      </trkpt>
      <trkpt lat="44.10062" lon="6.30973">
        <ele>936.72</ele>
        <time>2024-04-21T14:42:36.888Z</time>
      </trkpt>
      <trkpt lat="44.10082" lon="6.30978">
        <ele>934.07</ele>
        <time>2024-04-21T14:42:38.421Z</time>
      </trkpt>
      <trkpt lat="44.10096" lon="6.30993">
        <ele>931.65</ele>
        <time>2024-04-21T14:42:39.962Z</time>
      </trkpt>
      <trkpt lat="44.10108" lon="6.30962">
        <ele>929.12</ele>
        <time>2024-04-21T14:42:41.514Z</time>
      </trkpt>
      <trkpt lat="44.10128" lon="6.30948">
        <ele>926.88</ele>
        <time>2024-04-21T14:42:43.076Z</time>
      </trkpt>
      <trkpt lat="44.10115" lon="6.30916">
        <ele>924.47</ele>
        <time>2024-04-21T14:42:44.650Z</time>
      </trkpt>
      <trkpt lat="44.10116" lon="6.30888">
        <ele>922.23</ele>
        <time>2024-04-21T14:42:46.233Z</time>
      </trkpt>
      <trkpt lat="44.10134" lon="6.30855">
        <ele>920.23</ele>
        <time>2024-04-21T14:42:47.829Z</time>
      </trkpt>
      <trkpt lat="44.1016" lon="6.30815">
        <ele>918.4</ele>
        <time>2024-04-21T14:42:49.443Z</time>
      </trkpt>
      <trkpt lat="44.1017" lon="6.30789">
        <ele>916.46</ele>
        <time>2024-04-21T14:42:51.066Z</time>
      </trkpt>
      <trkpt lat="44.10171" lon="6.307">
        <ele>914.43</ele>
        <time>2024-04-21T14:42:52.718Z</time>
      </trkpt>
      <trkpt lat="44.10176" lon="6.30674">
        <ele>912.29</ele>
        <time>2024-04-21T14:42:54.378Z</time>
      </trkpt>
      <trkpt lat="44.10148" lon="6.30636">
        <ele>910.06</ele>
        <time>2024-04-21T14:42:56.056Z</time>
      </trkpt>
      <trkpt lat="44.10135" lon="6.30617">
        <ele>908</ele>
        <time>2024-04-21T14:42:57.742Z</time>
      </trkpt>
      <trkpt lat="44.10065" lon="6.30601">
        <ele>905.86</ele>
        <time>2024-04-21T14:42:59.460Z</time>
      </trkpt>
      <trkpt lat="44.10017" lon="6.30615">
        <ele>903.72</ele>
        <time>2024-04-21T14:43:01.199Z</time>
      </trkpt>
      <trkpt lat="44.10017" lon="6.30615">
        <ele>903.72</ele>
        <time>2024-04-21T14:43:02.938Z</time>
      </trkpt>
      <trkpt lat="44.10017" lon="6.30615">
        <ele>903.72</ele>
        <time>2024-04-21T14:43:04.677Z</time>
      </trkpt>
      <trkpt lat="44.09996" lon="6.30656">
        <ele>902.21</ele>
        <time>2024-04-21T14:43:06.433Z</time>
      </trkpt>
      <trkpt lat="44.09975" lon="6.30674">
        <ele>900.62</ele>
        <time>2024-04-21T14:43:08.200Z</time>
      </trkpt>
      <trkpt lat="44.09959" lon="6.30688">
        <ele>899.07</ele>
        <time>2024-04-21T14:43:09.975Z</time>
      </trkpt>
      <trkpt lat="44.09931" lon="6.30688">
        <ele>897.39</ele>
        <time>2024-04-21T14:43:11.762Z</time>
      </trkpt>
      <trkpt lat="44.09898" lon="6.30688">
        <ele>895.83</ele>
        <time>2024-04-21T14:43:13.564Z</time>
      </trkpt>
      <trkpt lat="44.0989" lon="6.30666">
        <ele>894.41</ele>
        <time>2024-04-21T14:43:15.374Z</time>
      </trkpt>
      <trkpt lat="44.09901" lon="6.30638">
        <ele>893.08</ele>
        <time>2024-04-21T14:43:17.194Z</time>
      </trkpt>
      <trkpt lat="44.09906" lon="6.30613">
        <ele>891.84</ele>
        <time>2024-04-21T14:43:19.022Z</time>
      </trkpt>
      <trkpt lat="44.09904" lon="6.30583">
        <ele>890.49</ele>
        <time>2024-04-21T14:43:20.860Z</time>
      </trkpt>
      <trkpt lat="44.09904" lon="6.30547">
        <ele>889.18</ele>
        <time>2024-04-21T14:43:22.709Z</time>
      </trkpt>
      <trkpt lat="44.09923" lon="6.30536">
        <ele>887.82</ele>
        <time>2024-04-21T14:43:24.567Z</time>
      </trkpt>
      <trkpt lat="44.09936" lon="6.3049">
        <ele>886.49</ele>
        <time>2024-04-21T14:43:26.441Z</time>
      </trkpt>
      <trkpt lat="44.09941" lon="6.3046">
        <ele>885.2</ele>
        <time>2024-04-21T14:43:28.325Z</time>
      </trkpt>
      <trkpt lat="44.09957" lon="6.30436">
        <ele>883.67</ele>
        <time>2024-04-21T14:43:30.220Z</time>
      </trkpt>
      <trkpt lat="44.09945" lon="6.30407">
        <ele>882.25</ele>
        <time>2024-04-21T14:43:32.125Z</time>
      </trkpt>
      <trkpt lat="44.09936" lon="6.30366">
        <ele>880.77</ele>
        <time>2024-04-21T14:43:34.044Z</time>
      </trkpt>
      <trkpt lat="44.09917" lon="6.3035">
        <ele>878.95</ele>
        <time>2024-04-21T14:43:35.973Z</time>
      </trkpt>
      <trkpt lat="44.09882" lon="6.30382">
        <ele>877.05</ele>
        <time>2024-04-21T14:43:37.921Z</time>
      </trkpt>
      <trkpt lat="44.09832" lon="6.30364">
        <ele>874.44</ele>
        <time>2024-04-21T14:43:39.892Z</time>
      </trkpt>
      <trkpt lat="44.09814" lon="6.30341">
        <ele>871.54</ele>
        <time>2024-04-21T14:43:41.874Z</time>
      </trkpt>
      <trkpt lat="44.09806" lon="6.30306">
        <ele>868.39</ele>
        <time>2024-04-21T14:43:43.868Z</time>
      </trkpt>
      <trkpt lat="44.09794" lon="6.30284">
        <ele>865.12</ele>
        <time>2024-04-21T14:43:45.870Z</time>
      </trkpt>
      <trkpt lat="44.09774" lon="6.30271">
        <ele>861.59</ele>
        <time>2024-04-21T14:43:47.882Z</time>
      </trkpt>
      <trkpt lat="44.09767" lon="6.30237">
        <ele>857.94</ele>
        <time>2024-04-21T14:43:49.905Z</time>
      </trkpt>
      <trkpt lat="44.09755" lon="6.30209">
        <ele>854.11</ele>
        <time>2024-04-21T14:43:51.938Z</time>
      </trkpt>
      <trkpt lat="44.09722" lon="6.3022">
        <ele>849.93</ele>
        <time>2024-04-21T14:43:53.987Z</time>
      </trkpt>
      <trkpt lat="44.09682" lon="6.30203">
        <ele>845.31</ele>
        <time>2024-04-21T14:43:56.054Z</time>
      </trkpt>
      <trkpt lat="44.09659" lon="6.30178">
        <ele>840.74</ele>
        <time>2024-04-21T14:43:58.134Z</time>
      </trkpt>
      <trkpt lat="44.09643" lon="6.30167">
        <ele>836.04</ele>
        <time>2024-04-21T14:44:00.222Z</time>
      </trkpt>
      <trkpt lat="44.09603" lon="6.30148">
        <ele>830.81</ele>
        <time>2024-04-21T14:44:02.329Z</time>
      </trkpt>
      <trkpt lat="44.09581" lon="6.30144">
        <ele>825.82</ele>
        <time>2024-04-21T14:44:04.446Z</time>
      </trkpt>
      <trkpt lat="44.09563" lon="6.30138">
        <ele>820.84</ele>
        <time>2024-04-21T14:44:06.571Z</time>
      </trkpt>
      <trkpt lat="44.09544" lon="6.30145">
        <ele>815.87</ele>
        <time>2024-04-21T14:44:08.705Z</time>
      </trkpt>
      <trkpt lat="44.09516" lon="6.30139">
        <ele>810.89</ele>
        <time>2024-04-21T14:44:10.851Z</time>
      </trkpt>
      <trkpt lat="44.09526" lon="6.30115">
        <ele>806.45</ele>
        <time>2024-04-21T14:44:13.006Z</time>
      </trkpt>
      <trkpt lat="44.09501" lon="6.30096">
        <ele>801.69</ele>
        <time>2024-04-21T14:44:15.174Z</time>
      </trkpt>
      <trkpt lat="44.09488" lon="6.3008">
        <ele>797.33</ele>
        <time>2024-04-21T14:44:17.350Z</time>
      </trkpt>
      <trkpt lat="44.09465" lon="6.30065">
        <ele>793.25</ele>
        <time>2024-04-21T14:44:19.537Z</time>
      </trkpt>
      <trkpt lat="44.09426" lon="6.30072">
        <ele>789.55</ele>
        <time>2024-04-21T14:44:21.741Z</time>
      </trkpt>
      <trkpt lat="44.09405" lon="6.30071">
        <ele>786.24</ele>
        <time>2024-04-21T14:44:23.955Z</time>
      </trkpt>
      <trkpt lat="44.09358" lon="6.30041">
        <ele>783.13</ele>
        <time>2024-04-21T14:44:26.192Z</time>
      </trkpt>
      <trkpt lat="44.09347" lon="6.3002">
        <ele>781.02</ele>
        <time>2024-04-21T14:44:28.437Z</time>
      </trkpt>
      <trkpt lat="44.0936" lon="6.29977">
        <ele>779.79</ele>
        <time>2024-04-21T14:44:30.697Z</time>
      </trkpt>
      <trkpt lat="44.09347" lon="6.29913">
        <ele>779</ele>
        <time>2024-04-21T14:44:32.978Z</time>
      </trkpt>
      <trkpt lat="44.09346" lon="6.29886">
        <ele>778.91</ele>
        <time>2024-04-21T14:44:35.268Z</time>
      </trkpt>
      <trkpt lat="44.09359" lon="6.29908">
        <ele>779.08</ele>
        <time>2024-04-21T14:44:37.567Z</time>
      </trkpt>
      <trkpt lat="44.09369" lon="6.29929">
        <ele>779.78</ele>
        <time>2024-04-21T14:44:39.874Z</time>
      </trkpt>
      <trkpt lat="44.09392" lon="6.29903">
        <ele>781.65</ele>
        <time>2024-04-21T14:44:42.195Z</time>
      </trkpt>
      <trkpt lat="44.09386" lon="6.29878">
        <ele>783.43</ele>
        <time>2024-04-21T14:44:44.524Z</time>
      </trkpt>
      <trkpt lat="44.09378" lon="6.29821">
        <ele>785.92</ele>
        <time>2024-04-21T14:44:46.872Z</time>
      </trkpt>
      <trkpt lat="44.09397" lon="6.29813">
        <ele>788.68</ele>
        <time>2024-04-21T14:44:49.228Z</time>
      </trkpt>
      <trkpt lat="44.09418" lon="6.29814">
        <ele>791.62</ele>
        <time>2024-04-21T14:44:51.593Z</time>
      </trkpt>
      <trkpt lat="44.09441" lon="6.29815">
        <ele>794.82</ele>
        <time>2024-04-21T14:44:53.969Z</time>
      </trkpt>
      <trkpt lat="44.09428" lon="6.29795">
        <ele>798.19</ele>
        <time>2024-04-21T14:44:56.353Z</time>
      </trkpt>
      <trkpt lat="44.09425" lon="6.29756">
        <ele>801.91</ele>
        <time>2024-04-21T14:44:58.750Z</time>
      </trkpt>
      <trkpt lat="44.09424" lon="6.29729">
        <ele>805.78</ele>
        <time>2024-04-21T14:45:01.155Z</time>
      </trkpt>
      <trkpt lat="44.09402" lon="6.29709">
        <ele>809.65</ele>
        <time>2024-04-21T14:45:03.572Z</time>
      </trkpt>
      <trkpt lat="44.09384" lon="6.29692">
        <ele>813.69</ele>
        <time>2024-04-21T14:45:05.998Z</time>
      </trkpt>
      <trkpt lat="44.09373" lon="6.29671">
        <ele>817.99</ele>
        <time>2024-04-21T14:45:08.433Z</time>
      </trkpt>
      <trkpt lat="44.09404" lon="6.29678">
        <ele>822.25</ele>
        <time>2024-04-21T14:45:10.882Z</time>
      </trkpt>
      <trkpt lat="44.09423" lon="6.29676">
        <ele>826.61</ele>
        <time>2024-04-21T14:45:13.339Z</time>
      </trkpt>
      <trkpt lat="44.09449" lon="6.29688">
        <ele>830.96</ele>
        <time>2024-04-21T14:45:15.808Z</time>
      </trkpt>
      <trkpt lat="44.09436" lon="6.29653">
        <ele>835.5</ele>
        <time>2024-04-21T14:45:18.290Z</time>
      </trkpt>
      <trkpt lat="44.09419" lon="6.2962">
        <ele>840.12</ele>
        <time>2024-04-21T14:45:20.785Z</time>
      </trkpt>
      <trkpt lat="44.09441" lon="6.29616">
        <ele>844.55</ele>
        <time>2024-04-21T14:45:23.289Z</time>
      </trkpt>
      <trkpt lat="44.09454" lon="6.29589">
        <ele>849.08</ele>
        <time>2024-04-21T14:45:25.804Z</time>
      </trkpt>
      <trkpt lat="44.0946" lon="6.29562">
        <ele>853.39</ele>
        <time>2024-04-21T14:45:28.328Z</time>
      </trkpt>
      <trkpt lat="44.09478" lon="6.29575">
        <ele>857.44</ele>
        <time>2024-04-21T14:45:30.861Z</time>
      </trkpt>
      <trkpt lat="44.09499" lon="6.29574">
        <ele>861.5</ele>
        <time>2024-04-21T14:45:33.403Z</time>
      </trkpt>
      <trkpt lat="44.0954" lon="6.29581">
        <ele>865.3</ele>
        <time>2024-04-21T14:45:35.964Z</time>
      </trkpt>
      <trkpt lat="44.09557" lon="6.29565">
        <ele>869.16</ele>
        <time>2024-04-21T14:45:38.534Z</time>
      </trkpt>
      <trkpt lat="44.09582" lon="6.29526">
        <ele>873.11</ele>
        <time>2024-04-21T14:45:41.120Z</time>
      </trkpt>
      <trkpt lat="44.09595" lon="6.29508">
        <ele>876.73</ele>
        <time>2024-04-21T14:45:43.714Z</time>
      </trkpt>
      <trkpt lat="44.09617" lon="6.29496">
        <ele>880.11</ele>
        <time>2024-04-21T14:45:46.319Z</time>
      </trkpt>
      <trkpt lat="44.09653" lon="6.2948">
        <ele>883.52</ele>
        <time>2024-04-21T14:45:48.941Z</time>
      </trkpt>
      <trkpt lat="44.09676" lon="6.29452">
        <ele>886.87</ele>
        <time>2024-04-21T14:45:51.577Z</time>
      </trkpt>
      <trkpt lat="44.09703" lon="6.29435">
        <ele>889.9</ele>
        <time>2024-04-21T14:45:54.225Z</time>
      </trkpt>
      <trkpt lat="44.09734" lon="6.29467">
        <ele>892.53</ele>
        <time>2024-04-21T14:45:56.891Z</time>
      </trkpt>
      <trkpt lat="44.09759" lon="6.29478">
        <ele>894.62</ele>
        <time>2024-04-21T14:45:59.568Z</time>
      </trkpt>
      <trkpt lat="44.0982" lon="6.29448">
        <ele>896.82</ele>
        <time>2024-04-21T14:46:02.274Z</time>
      </trkpt>
      <trkpt lat="44.09877" lon="6.29446">
        <ele>899.26</ele>
        <time>2024-04-21T14:46:05.006Z</time>
      </trkpt>
      <trkpt lat="44.09898" lon="6.29437">
        <ele>901.52</ele>
        <time>2024-04-21T14:46:07.747Z</time>
      </trkpt>
      <trkpt lat="44.09903" lon="6.295">
        <ele>903.28</ele>
        <time>2024-04-21T14:46:10.509Z</time>
      </trkpt>
      <trkpt lat="44.09884" lon="6.29522">
        <ele>904.5</ele>
        <time>2024-04-21T14:46:13.282Z</time>
      </trkpt>
      <trkpt lat="44.09881" lon="6.29555">
        <ele>905.92</ele>
        <time>2024-04-21T14:46:16.066Z</time>
      </trkpt>
      <trkpt lat="44.09883" lon="6.29582">
        <ele>907.28</ele>
        <time>2024-04-21T14:46:18.858Z</time>
      </trkpt>
      <trkpt lat="44.09896" lon="6.29619">
        <ele>908.69</ele>
        <time>2024-04-21T14:46:21.663Z</time>
      </trkpt>
      <trkpt lat="44.09921" lon="6.29647">
        <ele>910.02</ele>
        <time>2024-04-21T14:46:24.483Z</time>
      </trkpt>
      <trkpt lat="44.0994" lon="6.29673">
        <ele>911.09</ele>
        <time>2024-04-21T14:46:27.315Z</time>
      </trkpt>
      <trkpt lat="44.09959" lon="6.29695">
        <ele>912.07</ele>
        <time>2024-04-21T14:46:30.158Z</time>
      </trkpt>
      <trkpt lat="44.0998" lon="6.29695">
        <ele>913.13</ele>
        <time>2024-04-21T14:46:33.010Z</time>
      </trkpt>
      <trkpt lat="44.10004" lon="6.29702">
        <ele>914.06</ele>
        <time>2024-04-21T14:46:35.873Z</time>
      </trkpt>
      <trkpt lat="44.10026" lon="6.29691">
        <ele>915.14</ele>
        <time>2024-04-21T14:46:38.746Z</time>
      </trkpt>
      <trkpt lat="44.10064" lon="6.29694">
        <ele>916.01</ele>
        <time>2024-04-21T14:46:41.636Z</time>
      </trkpt>
      <trkpt lat="44.10086" lon="6.2969">
        <ele>917.26</ele>
        <time>2024-04-21T14:46:44.536Z</time>
      </trkpt>
      <trkpt lat="44.10094" lon="6.29713">
        <ele>918.2</ele>
        <time>2024-04-21T14:46:47.444Z</time>
      </trkpt>
      <trkpt lat="44.1011" lon="6.29746">
        <ele>919.37</ele>
        <time>2024-04-21T14:46:50.365Z</time>
      </trkpt>
      <trkpt lat="44.10123" lon="6.29768">
        <ele>920.43</ele>
        <time>2024-04-21T14:46:53.295Z</time>
      </trkpt>
      <trkpt lat="44.10135" lon="6.29788">
        <ele>921.43</ele>
        <time>2024-04-21T14:46:56.233Z</time>
      </trkpt>
      <trkpt lat="44.10159" lon="6.29799">
        <ele>922.75</ele>
        <time>2024-04-21T14:46:59.183Z</time>
      </trkpt>
      <trkpt lat="44.1018" lon="6.29807">
        <ele>924.11</ele>
        <time>2024-04-21T14:47:02.142Z</time>
      </trkpt>
      <trkpt lat="44.10203" lon="6.29823">
        <ele>925.57</ele>
        <time>2024-04-21T14:47:05.113Z</time>
      </trkpt>
      <trkpt lat="44.10214" lon="6.29843">
        <ele>926.66</ele>
        <time>2024-04-21T14:47:08.092Z</time>
      </trkpt>
      <trkpt lat="44.10227" lon="6.29868">
        <ele>927.67</ele>
        <time>2024-04-21T14:47:11.081Z</time>
      </trkpt>
      <trkpt lat="44.10253" lon="6.29899">
        <ele>928.7</ele>
        <time>2024-04-21T14:47:14.085Z</time>
      </trkpt>
      <trkpt lat="44.10275" lon="6.29915">
        <ele>929.91</ele>
        <time>2024-04-21T14:47:17.100Z</time>
      </trkpt>
      <trkpt lat="44.10292" lon="6.29932">
        <ele>931.03</ele>
        <time>2024-04-21T14:47:20.124Z</time>
      </trkpt>
      <trkpt lat="44.10314" lon="6.29942">
        <ele>932.38</ele>
        <time>2024-04-21T14:47:23.159Z</time>
      </trkpt>
      <trkpt lat="44.10333" lon="6.29962">
        <ele>933.45</ele>
        <time>2024-04-21T14:47:26.204Z</time>
      </trkpt>
      <trkpt lat="44.10337" lon="6.29987">
        <ele>934.06</ele>
        <time>2024-04-21T14:47:29.257Z</time>
      </trkpt>
      <trkpt lat="44.10349" lon="6.30025">
        <ele>934.87</ele>
        <time>2024-04-21T14:47:32.324Z</time>
      </trkpt>
      <trkpt lat="44.10371" lon="6.30052">
        <ele>935.85</ele>
        <time>2024-04-21T14:47:35.404Z</time>
      </trkpt>
      <trkpt lat="44.1038" lon="6.30076">
        <ele>936.53</ele>
        <time>2024-04-21T14:47:38.493Z</time>
      </trkpt>
      <trkpt lat="44.10404" lon="6.30096">
        <ele>937.33</ele>
        <time>2024-04-21T14:47:41.594Z</time>
      </trkpt>
      <trkpt lat="44.10428" lon="6.30107">
        <ele>938.05</ele>
        <time>2024-04-21T14:47:44.706Z</time>
      </trkpt>
      <trkpt lat="44.10459" lon="6.30112">
        <ele>938.78</ele>
        <time>2024-04-21T14:47:47.832Z</time>
      </trkpt>
      <trkpt lat="44.10486" lon="6.30121">
        <ele>939.45</ele>
        <time>2024-04-21T14:47:50.970Z</time>
      </trkpt>
      <trkpt lat="44.10505" lon="6.30121">
        <ele>940.04</ele>
        <time>2024-04-21T14:47:54.117Z</time>
      </trkpt>
      <trkpt lat="44.10528" lon="6.30123">
        <ele>940.58</ele>
        <time>2024-04-21T14:47:57.274Z</time>
      </trkpt>
      <trkpt lat="44.10547" lon="6.30131">
        <ele>940.96</ele>
        <time>2024-04-21T14:48:00.440Z</time>
      </trkpt>
      <trkpt lat="44.10566" lon="6.30135">
        <ele>941.33</ele>
        <time>2024-04-21T14:48:03.615Z</time>
      </trkpt>
      <trkpt lat="44.10589" lon="6.30158">
        <ele>941.53</ele>
        <time>2024-04-21T14:48:06.802Z</time>
      </trkpt>
      <trkpt lat="44.10604" lon="6.30188">
        <ele>941.47</ele>
        <time>2024-04-21T14:48:10.001Z</time>
      </trkpt>
      <trkpt lat="44.10632" lon="6.30177">
        <ele>941.68</ele>
        <time>2024-04-21T14:48:13.213Z</time>
      </trkpt>
      <trkpt lat="44.10651" lon="6.3018">
        <ele>941.68</ele>
        <time>2024-04-21T14:48:16.434Z</time>
      </trkpt>
      <trkpt lat="44.10666" lon="6.30199">
        <ele>941.5</ele>
        <time>2024-04-21T14:48:19.664Z</time>
      </trkpt>
      <trkpt lat="44.1068" lon="6.30216">
        <ele>941.26</ele>
        <time>2024-04-21T14:48:22.902Z</time>
      </trkpt>
      <trkpt lat="44.10712" lon="6.30269">
        <ele>940.78</ele>
        <time>2024-04-21T14:48:26.162Z</time>
      </trkpt>
      <trkpt lat="44.1072" lon="6.30299">
        <ele>940.31</ele>
        <time>2024-04-21T14:48:29.432Z</time>
      </trkpt>
      <trkpt lat="44.10729" lon="6.30335">
        <ele>939.92</ele>
        <time>2024-04-21T14:48:32.714Z</time>
      </trkpt>
      <trkpt lat="44.10747" lon="6.30427">
        <ele>939.61</ele>
        <time>2024-04-21T14:48:36.027Z</time>
      </trkpt>
      <trkpt lat="44.10757" lon="6.30485">
        <ele>939.35</ele>
        <time>2024-04-21T14:48:39.359Z</time>
      </trkpt>
      <trkpt lat="44.10764" lon="6.30514">
        <ele>939.31</ele>
        <time>2024-04-21T14:48:42.701Z</time>
      </trkpt>
      <trkpt lat="44.10764" lon="6.30547">
        <ele>939.51</ele>
        <time>2024-04-21T14:48:46.053Z</time>
      </trkpt>
      <trkpt lat="44.10757" lon="6.30581">
        <ele>939.85</ele>
        <time>2024-04-21T14:48:49.416Z</time>
      </trkpt>
      <trkpt lat="44.10762" lon="6.30614">
        <ele>940.22</ele>
        <time>2024-04-21T14:48:52.791Z</time>
      </trkpt>
      <trkpt lat="44.10758" lon="6.30639">
        <ele>940.65</ele>
        <time>2024-04-21T14:48:56.174Z</time>
      </trkpt>
      <trkpt lat="44.1076" lon="6.30666">
        <ele>941.15</ele>
        <time>2024-04-21T14:48:59.565Z</time>
      </trkpt>
      <trkpt lat="44.10787" lon="6.30703">
        <ele>942.09</ele>
        <time>2024-04-21T14:49:02.973Z</time>
      </trkpt>
      <trkpt lat="44.10803" lon="6.30724">
        <ele>942.84</ele>
        <time>2024-04-21T14:49:06.391Z</time>
      </trkpt>
      <trkpt lat="44.1084" lon="6.30747">
        <ele>943.59</ele>
        <time>2024-04-21T14:49:09.827Z</time>
      </trkpt>
      <trkpt lat="44.10864" lon="6.30766">
        <ele>944.08</ele>
        <time>2024-04-21T14:49:13.275Z</time>
      </trkpt>
      <trkpt lat="44.10885" lon="6.30798">
        <ele>944.5</ele>
        <time>2024-04-21T14:49:16.737Z</time>
      </trkpt>
      <trkpt lat="44.10918" lon="6.30841">
        <ele>944.81</ele>
        <time>2024-04-21T14:49:20.219Z</time>
      </trkpt>
      <trkpt lat="44.10933" lon="6.3086">
        <ele>945.15</ele>
        <time>2024-04-21T14:49:23.710Z</time>
      </trkpt>
      <trkpt lat="44.10952" lon="6.30876">
        <ele>945.31</ele>
        <time>2024-04-21T14:49:27.211Z</time>
      </trkpt>
      <trkpt lat="44.10952" lon="6.30876">
        <ele>945.31</ele>
        <time>2024-04-21T14:49:30.712Z</time>
      </trkpt>
      <trkpt lat="44.10971" lon="6.3088">
        <ele>945.3</ele>
        <time>2024-04-21T14:49:34.222Z</time>
      </trkpt>
      <trkpt lat="44.1099" lon="6.30917">
        <ele>945.54</ele>
        <time>2024-04-21T14:49:37.746Z</time>
      </trkpt>
      <trkpt lat="44.11026" lon="6.30949">
        <ele>945.54</ele>
        <time>2024-04-21T14:49:41.289Z</time>
      </trkpt>
      <trkpt lat="44.11058" lon="6.30963">
        <ele>945.53</ele>
        <time>2024-04-21T14:49:44.847Z</time>
      </trkpt>
      <trkpt lat="44.11086" lon="6.30971">
        <ele>945.73</ele>
        <time>2024-04-21T14:49:48.418Z</time>
      </trkpt>
      <trkpt lat="44.1112" lon="6.30976">
        <ele>945.98</ele>
        <time>2024-04-21T14:49:52.004Z</time>
      </trkpt>
      <trkpt lat="44.11143" lon="6.30975">
        <ele>945.84</ele>
        <time>2024-04-21T14:49:55.600Z</time>
      </trkpt>
      <trkpt lat="44.11197" lon="6.31045">
        <ele>945.81</ele>
        <time>2024-04-21T14:49:59.229Z</time>
      </trkpt>
      <trkpt lat="44.1122" lon="6.31101">
        <ele>945.87</ele>
        <time>2024-04-21T14:50:02.879Z</time>
      </trkpt>
      <trkpt lat="44.11245" lon="6.31121">
        <ele>946</ele>
        <time>2024-04-21T14:50:06.541Z</time>
      </trkpt>
      <trkpt lat="44.11272" lon="6.31159">
        <ele>946.33</ele>
        <time>2024-04-21T14:50:10.221Z</time>
      </trkpt>
      <trkpt lat="44.11286" lon="6.31199">
        <ele>946.51</ele>
        <time>2024-04-21T14:50:13.915Z</time>
      </trkpt>
      <trkpt lat="44.11307" lon="6.31236">
        <ele>946.46</ele>
        <time>2024-04-21T14:50:17.624Z</time>
      </trkpt>
      <trkpt lat="44.1133" lon="6.31275">
        <ele>946.4</ele>
        <time>2024-04-21T14:50:21.349Z</time>
      </trkpt>
      <trkpt lat="44.11341" lon="6.31317">
        <ele>946.32</ele>
        <time>2024-04-21T14:50:25.089Z</time>
      </trkpt>
      <trkpt lat="44.11359" lon="6.31341">
        <ele>946.39</ele>
        <time>2024-04-21T14:50:28.840Z</time>
      </trkpt>
      <trkpt lat="44.11379" lon="6.31339">
        <ele>946.43</ele>
        <time>2024-04-21T14:50:32.599Z</time>
      </trkpt>
      <trkpt lat="44.11399" lon="6.3135">
        <ele>946.67</ele>
        <time>2024-04-21T14:50:36.368Z</time>
      </trkpt>
      <trkpt lat="44.11417" lon="6.31347">
        <ele>946.99</ele>
        <time>2024-04-21T14:50:40.145Z</time>
      </trkpt>
      <trkpt lat="44.11442" lon="6.31327">
        <ele>947.35</ele>
        <time>2024-04-21T14:50:43.935Z</time>
      </trkpt>
      <trkpt lat="44.11465" lon="6.31321">
        <ele>947.68</ele>
        <time>2024-04-21T14:50:47.735Z</time>
      </trkpt>
      <trkpt lat="44.11487" lon="6.31313">
        <ele>947.91</ele>
        <time>2024-04-21T14:50:51.545Z</time>
      </trkpt>
      <trkpt lat="44.11503" lon="6.31294">
        <ele>948.08</ele>
        <time>2024-04-21T14:50:55.365Z</time>
      </trkpt>
      <trkpt lat="44.11531" lon="6.31313">
        <ele>948.58</ele>
        <time>2024-04-21T14:50:59.199Z</time>
      </trkpt>
      <trkpt lat="44.11553" lon="6.31324">
        <ele>949.01</ele>
        <time>2024-04-21T14:51:03.043Z</time>
      </trkpt>
      <trkpt lat="44.11569" lon="6.31333">
        <ele>949.44</ele>
        <time>2024-04-21T14:51:06.895Z</time>
      </trkpt>
      <trkpt lat="44.11605" lon="6.31337">
        <ele>949.89</ele>
        <time>2024-04-21T14:51:10.763Z</time>
      </trkpt>
      <trkpt lat="44.11621" lon="6.3135">
        <ele>950.48</ele>
        <time>2024-04-21T14:51:14.639Z</time>
      </trkpt>
      <trkpt lat="44.1165" lon="6.31335">
        <ele>951.14</ele>
        <time>2024-04-21T14:51:18.529Z</time>
      </trkpt>
      <trkpt lat="44.11696" lon="6.31353">
        <ele>952.03</ele>
        <time>2024-04-21T14:51:22.440Z</time>
      </trkpt>
      <trkpt lat="44.11686" lon="6.31374">
        <ele>952.74</ele>
        <time>2024-04-21T14:51:26.359Z</time>
      </trkpt>
      <trkpt lat="44.11669" lon="6.31392">
        <ele>953.39</ele>
        <time>2024-04-21T14:51:30.288Z</time>
      </trkpt>
      <trkpt lat="44.11663" lon="6.31418">
        <ele>954.21</ele>
        <time>2024-04-21T14:51:34.225Z</time>
      </trkpt>
      <trkpt lat="44.11641" lon="6.31444">
        <ele>954.98</ele>
        <time>2024-04-21T14:51:38.175Z</time>
      </trkpt>
      <trkpt lat="44.11622" lon="6.31453">
        <ele>955.6</ele>
        <time>2024-04-21T14:51:42.134Z</time>
      </trkpt>
      <trkpt lat="44.11603" lon="6.31442">
        <ele>956.1</ele>
        <time>2024-04-21T14:51:46.103Z</time>
      </trkpt>
      <trkpt lat="44.11577" lon="6.31406">
        <ele>956.57</ele>
        <time>2024-04-21T14:51:50.088Z</time>
      </trkpt>
      <trkpt lat="44.11543" lon="6.31386">
        <ele>957.31</ele>
        <time>2024-04-21T14:51:54.089Z</time>
      </trkpt>
      <trkpt lat="44.1152" lon="6.31381">
        <ele>958.14</ele>
        <time>2024-04-21T14:51:58.101Z</time>
      </trkpt>
      <trkpt lat="44.11501" lon="6.31387">
        <ele>958.82</ele>
        <time>2024-04-21T14:52:02.121Z</time>
      </trkpt>
      <trkpt lat="44.11486" lon="6.31405">
        <ele>959.5</ele>
        <time>2024-04-21T14:52:06.150Z</time>
      </trkpt>
      <trkpt lat="44.1142" lon="6.31495">
        <ele>960.55</ele>
        <time>2024-04-21T14:52:10.220Z</time>
      </trkpt>
      <trkpt lat="44.11402" lon="6.31513">
        <ele>961.21</ele>
        <time>2024-04-21T14:52:14.300Z</time>
      </trkpt>
      <trkpt lat="44.11382" lon="6.31532">
        <ele>961.91</ele>
        <time>2024-04-21T14:52:18.391Z</time>
      </trkpt>
      <trkpt lat="44.11328" lon="6.31523">
        <ele>962.42</ele>
        <time>2024-04-21T14:52:22.506Z</time>
      </trkpt>
      <trkpt lat="44.11293" lon="6.31535">
        <ele>963.07</ele>
        <time>2024-04-21T14:52:26.637Z</time>
      </trkpt>
      <trkpt lat="44.11265" lon="6.31503">
        <ele>963.65</ele>
        <time>2024-04-21T14:52:30.784Z</time>
      </trkpt>
      <trkpt lat="44.1123" lon="6.31495">
        <ele>964.65</ele>
        <time>2024-04-21T14:52:34.947Z</time>
      </trkpt>
      <trkpt lat="44.11214" lon="6.31484">
        <ele>965.62</ele>
        <time>2024-04-21T14:52:39.118Z</time>
      </trkpt>
      <trkpt lat="44.11227" lon="6.31454">
        <ele>966.43</ele>
        <time>2024-04-21T14:52:43.300Z</time>
      </trkpt>
      <trkpt lat="44.11228" lon="6.31421">
        <ele>967.43</ele>
        <time>2024-04-21T14:52:47.493Z</time>
      </trkpt>
      <trkpt lat="44.11207" lon="6.31401">
        <ele>968.76</ele>
        <time>2024-04-21T14:52:51.697Z</time>
      </trkpt>
      <trkpt lat="44.11178" lon="6.31347">
        <ele>970.2</ele>
        <time>2024-04-21T14:52:55.923Z</time>
      </trkpt>
      <trkpt lat="44.11159" lon="6.31334">
        <ele>971.73</ele>
        <time>2024-04-21T14:53:00.158Z</time>
      </trkpt>
      <trkpt lat="44.11135" lon="6.31332">
        <ele>973.57</ele>
        <time>2024-04-21T14:53:04.403Z</time>
      </trkpt>
      <trkpt lat="44.11122" lon="6.31302">
        <ele>975.24</ele>
        <time>2024-04-21T14:53:08.660Z</time>
      </trkpt>
      <trkpt lat="44.11111" lon="6.31259">
        <ele>977.27</ele>
        <time>2024-04-21T14:53:12.931Z</time>
      </trkpt>
      <trkpt lat="44.11108" lon="6.31207">
        <ele>979.23</ele>
        <time>2024-04-21T14:53:17.219Z</time>
      </trkpt>
      <trkpt lat="44.11093" lon="6.31186">
        <ele>981.39</ele>
        <time>2024-04-21T14:53:21.517Z</time>
      </trkpt>
      <trkpt lat="44.1107" lon="6.31202">
        <ele>983.88</ele>
        <time>2024-04-21T14:53:25.826Z</time>
      </trkpt>
      <trkpt lat="44.11051" lon="6.31225">
        <ele>986.45</ele>
        <time>2024-04-21T14:53:30.146Z</time>
      </trkpt>
      <trkpt lat="44.11002" lon="6.31239">
        <ele>989.33</ele>
        <time>2024-04-21T14:53:34.489Z</time>
      </trkpt>
      <trkpt lat="44.10982" lon="6.31236">
        <ele>992.27</ele>
        <time>2024-04-21T14:53:38.841Z</time>
      </trkpt>
      <trkpt lat="44.10952" lon="6.312">
        <ele>995.4</ele>
        <time>2024-04-21T14:53:43.210Z</time>
      </trkpt>
      <trkpt lat="44.10927" lon="6.31147">
        <ele>998.61</ele>
        <time>2024-04-21T14:53:47.600Z</time>
      </trkpt>
      <trkpt lat="44.10911" lon="6.31106">
        <ele>1001.98</ele>
        <time>2024-04-21T14:53:52.004Z</time>
      </trkpt>
      <trkpt lat="44.10886" lon="6.31066">
        <ele>1005.56</ele>
        <time>2024-04-21T14:53:56.425Z</time>
      </trkpt>
      <trkpt lat="44.10878" lon="6.31036">
        <ele>1009.25</ele>
        <time>2024-04-21T14:54:00.857Z</time>
      </trkpt>
      <trkpt lat="44.10869" lon="6.31076">
        <ele>1013.41</ele>
        <time>2024-04-21T14:54:05.302Z</time>
      </trkpt>
      <trkpt lat="44.10865" lon="6.31104">
        <ele>1017.69</ele>
        <time>2024-04-21T14:54:09.756Z</time>
      </trkpt>
      <trkpt lat="44.10859" lon="6.31163">
        <ele>1022.43</ele>
        <time>2024-04-21T14:54:14.229Z</time>
      </trkpt>
      <trkpt lat="44.10877" lon="6.31204">
        <ele>1027.17</ele>
        <time>2024-04-21T14:54:18.718Z</time>
      </trkpt>
      <trkpt lat="44.10879" lon="6.31315">
        <ele>1032.65</ele>
        <time>2024-04-21T14:54:23.242Z</time>
      </trkpt>
      <trkpt lat="44.10869" lon="6.31418">
        <ele>1037.76</ele>
        <time>2024-04-21T14:54:27.800Z</time>
      </trkpt>
      <trkpt lat="44.1087" lon="6.31472">
        <ele>1043</ele>
        <time>2024-04-21T14:54:32.375Z</time>
      </trkpt>
      <trkpt lat="44.10864" lon="6.31512">
        <ele>1048.46</ele>
        <time>2024-04-21T14:54:36.963Z</time>
      </trkpt>
      <trkpt lat="44.1087" lon="6.3157">
        <ele>1054.14</ele>
        <time>2024-04-21T14:54:41.570Z</time>
      </trkpt>
      <trkpt lat="44.10883" lon="6.31637">
        <ele>1059.82</ele>
        <time>2024-04-21T14:54:46.199Z</time>
      </trkpt>
      <trkpt lat="44.1091" lon="6.31721">
        <ele>1065.68</ele>
        <time>2024-04-21T14:54:50.857Z</time>
      </trkpt>
      <trkpt lat="44.10912" lon="6.31775">
        <ele>1071.35</ele>
        <time>2024-04-21T14:54:55.533Z</time>
      </trkpt>
      <trkpt lat="44.109" lon="6.31835">
        <ele>1077.3</ele>
        <time>2024-04-21T14:55:00.229Z</time>
      </trkpt>
      <trkpt lat="44.10877" lon="6.31929">
        <ele>1083.74</ele>
        <time>2024-04-21T14:55:04.957Z</time>
      </trkpt>
      <trkpt lat="44.10859" lon="6.31985">
        <ele>1090.05</ele>
        <time>2024-04-21T14:55:09.704Z</time>
      </trkpt>
      <trkpt lat="44.10843" lon="6.32046">
        <ele>1096.23</ele>
        <time>2024-04-21T14:55:14.472Z</time>
      </trkpt>
      <trkpt lat="44.10841" lon="6.32075">
        <ele>1102.08</ele>
        <time>2024-04-21T14:55:19.250Z</time>
      </trkpt>
      <trkpt lat="44.10846" lon="6.32093">
        <ele>1107.86</ele>
        <time>2024-04-21T14:55:24.034Z</time>
      </trkpt>
      <trkpt lat="44.10864" lon="6.32109">
        <ele>1113.57</ele>
        <time>2024-04-21T14:55:28.827Z</time>
      </trkpt>
      <trkpt lat="44.10865" lon="6.32121">
        <ele>1119.31</ele>
        <time>2024-04-21T14:55:33.624Z</time>
      </trkpt>
      <trkpt lat="44.10857" lon="6.32132">
        <ele>1125.01</ele>
        <time>2024-04-21T14:55:38.426Z</time>
      </trkpt>
      <trkpt lat="44.10824" lon="6.32124">
        <ele>1130.72</ele>
        <time>2024-04-21T14:55:43.243Z</time>
      </trkpt>
      <trkpt lat="44.10783" lon="6.32079">
        <ele>1136.5</ele>
        <time>2024-04-21T14:55:48.083Z</time>
      </trkpt>
      <trkpt lat="44.10751" lon="6.32043">
        <ele>1142.04</ele>
        <time>2024-04-21T14:55:52.941Z</time>
      </trkpt>
      <trkpt lat="44.10706" lon="6.32068">
        <ele>1147.72</ele>
        <time>2024-04-21T14:55:57.821Z</time>
      </trkpt>
      <trkpt lat="44.10675" lon="6.32066">
        <ele>1153.1</ele>
        <time>2024-04-21T14:56:02.715Z</time>
      </trkpt>
      <trkpt lat="44.10619" lon="6.32126">
        <ele>1158.53</ele>
        <time>2024-04-21T14:56:07.640Z</time>
      </trkpt>
      <trkpt lat="44.10648" lon="6.32184">
        <ele>1163.8</ele>
        <time>2024-04-21T14:56:12.588Z</time>
      </trkpt>
      <trkpt lat="44.10668" lon="6.32249">
        <ele>1168.95</ele>
        <time>2024-04-21T14:56:17.559Z</time>
      </trkpt>
      <trkpt lat="44.1072" lon="6.32293">
        <ele>1173.57</ele>
        <time>2024-04-21T14:56:22.557Z</time>
      </trkpt>
      <trkpt lat="44.10736" lon="6.3236">
        <ele>1178</ele>
        <time>2024-04-21T14:56:27.577Z</time>
      </trkpt>
      <trkpt lat="44.10745" lon="6.32462">
        <ele>1182.61</ele>
        <time>2024-04-21T14:56:32.630Z</time>
      </trkpt>
      <trkpt lat="44.10768" lon="6.32526">
        <ele>1186.32</ele>
        <time>2024-04-21T14:56:37.706Z</time>
      </trkpt>
      <trkpt lat="44.10793" lon="6.32522">
        <ele>1189.42</ele>
        <time>2024-04-21T14:56:42.793Z</time>
      </trkpt>
      <trkpt lat="44.10765" lon="6.32554">
        <ele>1192.6</ele>
        <time>2024-04-21T14:56:47.896Z</time>
      </trkpt>
      <trkpt lat="44.10737" lon="6.32583">
        <ele>1195.43</ele>
        <time>2024-04-21T14:56:53.014Z</time>
      </trkpt>
      <trkpt lat="44.10717" lon="6.32581">
        <ele>1197.52</ele>
        <time>2024-04-21T14:56:58.141Z</time>
      </trkpt>
      <trkpt lat="44.10692" lon="6.32567">
        <ele>1199.14</ele>
        <time>2024-04-21T14:57:03.280Z</time>
      </trkpt>
      <trkpt lat="44.10639" lon="6.32597">
        <ele>1200.45</ele>
        <time>2024-04-21T14:57:08.445Z</time>
      </trkpt>
      <trkpt lat="44.10603" lon="6.32646">
        <ele>1201.19</ele>
        <time>2024-04-21T14:57:13.632Z</time>
      </trkpt>
      <trkpt lat="44.10582" lon="6.32707">
        <ele>1201.47</ele>
        <time>2024-04-21T14:57:18.841Z</time>
      </trkpt>
      <trkpt lat="44.10562" lon="6.32674">
        <ele>1200.4</ele>
        <time>2024-04-21T14:57:24.064Z</time>
      </trkpt>
      <trkpt lat="44.10547" lon="6.32643">
        <ele>1198.8</ele>
        <time>2024-04-21T14:57:29.299Z</time>
      </trkpt>
      <trkpt lat="44.10544" lon="6.32616">
        <ele>1196.73</ele>
        <time>2024-04-21T14:57:34.543Z</time>
      </trkpt>
      <trkpt lat="44.10539" lon="6.3259">
        <ele>1194.09</ele>
        <time>2024-04-21T14:57:39.795Z</time>
      </trkpt>
      <trkpt lat="44.10539" lon="6.3259">
        <ele>1194.08</ele>
        <time>2024-04-21T14:57:45.047Z</time>
      </trkpt>
      <trkpt lat="44.10535" lon="6.32558">
        <ele>1190.91</ele>
        <time>2024-04-21T14:57:50.310Z</time>
      </trkpt>
      <trkpt lat="44.10535" lon="6.32527">
        <ele>1187.2</ele>
        <time>2024-04-21T14:57:55.583Z</time>
      </trkpt>
      <trkpt lat="44.10544" lon="6.32505">
        <ele>1183.09</ele>
        <time>2024-04-21T14:58:00.864Z</time>
      </trkpt>
      <trkpt lat="44.10541" lon="6.32465">
        <ele>1178.17</ele>
        <time>2024-04-21T14:58:06.158Z</time>
      </trkpt>
      <trkpt lat="44.10516" lon="6.32435">
        <ele>1172.78</ele>
        <time>2024-04-21T14:58:11.466Z</time>
      </trkpt>
      <trkpt lat="44.10508" lon="6.32399">
        <ele>1167.03</ele>
        <time>2024-04-21T14:58:16.786Z</time>
      </trkpt>
      <trkpt lat="44.10486" lon="6.32397">
        <ele>1160.96</ele>
        <time>2024-04-21T14:58:22.116Z</time>
      </trkpt>
      <trkpt lat="44.10461" lon="6.32338">
        <ele>1154.31</ele>
        <time>2024-04-21T14:58:27.468Z</time>
      </trkpt>
      <trkpt lat="44.1045" lon="6.3231">
        <ele>1147.8</ele>
        <time>2024-04-21T14:58:32.830Z</time>
      </trkpt>
      <trkpt lat="44.10434" lon="6.32271">
        <ele>1141.08</ele>
        <time>2024-04-21T14:58:38.206Z</time>
      </trkpt>
      <trkpt lat="44.10405" lon="6.32256">
        <ele>1133.89</ele>
        <time>2024-04-21T14:58:43.596Z</time>
      </trkpt>
      <trkpt lat="44.10382" lon="6.32267">
        <ele>1126.78</ele>
        <time>2024-04-21T14:58:48.997Z</time>
      </trkpt>
      <trkpt lat="44.10349" lon="6.32234">
        <ele>1119.29</ele>
        <time>2024-04-21T14:58:54.416Z</time>
      </trkpt>
      <trkpt lat="44.10327" lon="6.32247">
        <ele>1112.29</ele>
        <time>2024-04-21T14:58:59.846Z</time>
      </trkpt>
      <trkpt lat="44.103" lon="6.32242">
        <ele>1105.19</ele>
        <time>2024-04-21T14:59:05.288Z</time>
      </trkpt>
      <trkpt lat="44.10285" lon="6.32218">
        <ele>1098.08</ele>
        <time>2024-04-21T14:59:10.740Z</time>
      </trkpt>
      <trkpt lat="44.10265" lon="6.32219">
        <ele>1091.35</ele>
        <time>2024-04-21T14:59:16.201Z</time>
      </trkpt>
      <trkpt lat="44.10247" lon="6.32165">
        <ele>1084.23</ele>
        <time>2024-04-21T14:59:21.681Z</time>
      </trkpt>
      <trkpt lat="44.10217" lon="6.32145">
        <ele>1078</ele>
        <time>2024-04-21T14:59:27.176Z</time>
      </trkpt>
      <trkpt lat="44.10215" lon="6.32118">
        <ele>1071.73</ele>
        <time>2024-04-21T14:59:32.680Z</time>
      </trkpt>
      <trkpt lat="44.10193" lon="6.32092">
        <ele>1065.85</ele>
        <time>2024-04-21T14:59:38.196Z</time>
      </trkpt>
      <trkpt lat="44.10182" lon="6.32069">
        <ele>1060.14</ele>
        <time>2024-04-21T14:59:43.721Z</time>
      </trkpt>
      <trkpt lat="44.10156" lon="6.32067">
        <ele>1055.24</ele>
        <time>2024-04-21T14:59:49.258Z</time>
      </trkpt>
      <trkpt lat="44.10139" lon="6.32042">
        <ele>1050.33</ele>
        <time>2024-04-21T14:59:54.806Z</time>
      </trkpt>
      <trkpt lat="44.10141" lon="6.32007">
        <ele>1045.51</ele>
        <time>2024-04-21T15:00:00.365Z</time>
      </trkpt>
      <trkpt lat="44.10136" lon="6.31973">
        <ele>1041.32</ele>
        <time>2024-04-21T15:00:05.935Z</time>
      </trkpt>
      <trkpt lat="44.10159" lon="6.31921">
        <ele>1037.04</ele>
        <time>2024-04-21T15:00:11.525Z</time>
      </trkpt>
      <trkpt lat="44.10184" lon="6.3194">
        <ele>1033.96</ele>
        <time>2024-04-21T15:00:17.127Z</time>
      </trkpt>
      <trkpt lat="44.10209" lon="6.31916">
        <ele>1031.22</ele>
        <time>2024-04-21T15:00:22.743Z</time>
      </trkpt>
      <trkpt lat="44.10216" lon="6.31873">
        <ele>1028.94</ele>
        <time>2024-04-21T15:00:28.373Z</time>
      </trkpt>
      <trkpt lat="44.10216" lon="6.31847">
        <ele>1027.37</ele>
        <time>2024-04-21T15:00:34.011Z</time>
      </trkpt>
      <trkpt lat="44.10223" lon="6.3182">
        <ele>1026.51</ele>
        <time>2024-04-21T15:00:39.659Z</time>
      </trkpt>
      <trkpt lat="44.10222" lon="6.31786">
        <ele>1026.19</ele>
        <time>2024-04-21T15:00:45.317Z</time>
      </trkpt>
      <trkpt lat="44.1022" lon="6.31747">
        <ele>1026.34</ele>
        <time>2024-04-21T15:00:50.988Z</time>
      </trkpt>
      <trkpt lat="44.10247" lon="6.31724">
        <ele>1027.14</ele>
        <time>2024-04-21T15:00:56.673Z</time>
      </trkpt>
      <trkpt lat="44.10281" lon="6.31714">
        <ele>1028.09</ele>
        <time>2024-04-21T15:01:02.374Z</time>
      </trkpt>
      <trkpt lat="44.10298" lon="6.31728">
        <ele>1029.84</ele>
        <time>2024-04-21T15:01:08.083Z</time>
      </trkpt>
      <trkpt lat="44.10324" lon="6.31797">
        <ele>1032.66</ele>
        <time>2024-04-21T15:01:13.817Z</time>
      </trkpt>
      <trkpt lat="44.10351" lon="6.3183">
        <ele>1035.5</ele>
        <time>2024-04-21T15:01:19.567Z</time>
      </trkpt>
      <trkpt lat="44.10379" lon="6.31803">
        <ele>1038.38</ele>
        <time>2024-04-21T15:01:25.332Z</time>
      </trkpt>
      <trkpt lat="44.10404" lon="6.31794">
        <ele>1041.87</ele>
        <time>2024-04-21T15:01:31.109Z</time>
      </trkpt>
      <trkpt lat="44.10429" lon="6.31785">
        <ele>1045.52</ele>
        <time>2024-04-21T15:01:36.897Z</time>
      </trkpt>
      <trkpt lat="44.10451" lon="6.31784">
        <ele>1049.37</ele>
        <time>2024-04-21T15:01:42.695Z</time>
      </trkpt>
      <trkpt lat="44.1049" lon="6.31824">
        <ele>1053.73</ele>
        <time>2024-04-21T15:01:48.514Z</time>
      </trkpt>
      <trkpt lat="44.10521" lon="6.31836">
        <ele>1057.98</ele>
        <time>2024-04-21T15:01:54.348Z</time>
      </trkpt>
      <trkpt lat="44.10558" lon="6.31845">
        <ele>1062.53</ele>
        <time>2024-04-21T15:02:00.198Z</time>
      </trkpt>
      <trkpt lat="44.10588" lon="6.31846">
        <ele>1066.96</ele>
        <time>2024-04-21T15:02:06.062Z</time>
      </trkpt>
      <trkpt lat="44.10618" lon="6.31841">
        <ele>1071.49</ele>
        <time>2024-04-21T15:02:11.940Z</time>
      </trkpt>
      <trkpt lat="44.10655" lon="6.31822">
        <ele>1076.18</ele>
        <time>2024-04-21T15:02:17.835Z</time>
      </trkpt>
      <trkpt lat="44.10679" lon="6.31803">
        <ele>1080.35</ele>
        <time>2024-04-21T15:02:23.742Z</time>
      </trkpt>
      <trkpt lat="44.10706" lon="6.31804">
        <ele>1084.65</ele>
        <time>2024-04-21T15:02:29.661Z</time>
      </trkpt>
      <trkpt lat="44.10741" lon="6.31779">
        <ele>1088.32</ele>
        <time>2024-04-21T15:02:35.598Z</time>
      </trkpt>
      <trkpt lat="44.10786" lon="6.31809">
        <ele>1091.87</ele>
        <time>2024-04-21T15:02:41.557Z</time>
      </trkpt>
      <trkpt lat="44.10799" lon="6.31837">
        <ele>1095.16</ele>
        <time>2024-04-21T15:02:47.527Z</time>
      </trkpt>
      <trkpt lat="44.1081" lon="6.31885">
        <ele>1098.25</ele>
        <time>2024-04-21T15:02:53.513Z</time>
      </trkpt>
      <trkpt lat="44.10818" lon="6.31944">
        <ele>1101.21</ele>
        <time>2024-04-21T15:02:59.518Z</time>
      </trkpt>
      <trkpt lat="44.10818" lon="6.32011">
        <ele>1103.93</ele>
        <time>2024-04-21T15:03:05.544Z</time>
      </trkpt>
      <trkpt lat="44.10833" lon="6.32063">
        <ele>1105.99</ele>
        <time>2024-04-21T15:03:11.588Z</time>
      </trkpt>
      <trkpt lat="44.10836" lon="6.32093">
        <ele>1107.8</ele>
        <time>2024-04-21T15:03:17.642Z</time>
      </trkpt>
      <trkpt lat="44.1085" lon="6.32106">
        <ele>1109.16</ele>
        <time>2024-04-21T15:03:23.704Z</time>
      </trkpt>
      <trkpt lat="44.10869" lon="6.32115">
        <ele>1110.18</ele>
        <time>2024-04-21T15:03:29.774Z</time>
      </trkpt>
      <trkpt lat="44.10886" lon="6.32093">
        <ele>1110.71</ele>
        <time>2024-04-21T15:03:35.854Z</time>
      </trkpt>
      <trkpt lat="44.10908" lon="6.32068">
        <ele>1110.89</ele>
        <time>2024-04-21T15:03:41.947Z</time>
      </trkpt>
      <trkpt lat="44.1092" lon="6.32055">
        <ele>1110.84</ele>
        <time>2024-04-21T15:03:48.047Z</time>
      </trkpt>
      <trkpt lat="44.10954" lon="6.32078">
        <ele>1110.62</ele>
        <time>2024-04-21T15:03:54.164Z</time>
      </trkpt>
      <trkpt lat="44.10975" lon="6.32107">
        <ele>1110.2</ele>
        <time>2024-04-21T15:04:00.294Z</time>
      </trkpt>
      <trkpt lat="44.11008" lon="6.32117">
        <ele>1109.39</ele>
        <time>2024-04-21T15:04:06.439Z</time>
      </trkpt>
      <trkpt lat="44.11036" lon="6.32114">
        <ele>1108.24</ele>
        <time>2024-04-21T15:04:12.596Z</time>
      </trkpt>
      <trkpt lat="44.11056" lon="6.3212">
        <ele>1106.65</ele>
        <time>2024-04-21T15:04:18.762Z</time>
      </trkpt>
      <trkpt lat="44.1106" lon="6.3215">
        <ele>1105.33</ele>
        <time>2024-04-21T15:04:24.938Z</time>
      </trkpt>
      <trkpt lat="44.11058" lon="6.32228">
        <ele>1103.96</ele>
        <time>2024-04-21T15:04:31.139Z</time>
      </trkpt>
      <trkpt lat="44.11049" lon="6.32257">
        <ele>1102.49</ele>
        <time>2024-04-21T15:04:37.350Z</time>
      </trkpt>
      <trkpt lat="44.11064" lon="6.32271">
        <ele>1100.66</ele>
        <time>2024-04-21T15:04:43.569Z</time>
      </trkpt>
      <trkpt lat="44.11073" lon="6.32294">
        <ele>1098.89</ele>
        <time>2024-04-21T15:04:49.797Z</time>
      </trkpt>
      <trkpt lat="44.11103" lon="6.3229">
        <ele>1096.78</ele>
        <time>2024-04-21T15:04:56.038Z</time>
      </trkpt>
      <trkpt lat="44.11128" lon="6.32304">
        <ele>1094.7</ele>
        <time>2024-04-21T15:05:02.291Z</time>
      </trkpt>
      <trkpt lat="44.11146" lon="6.32326">
        <ele>1092.62</ele>
        <time>2024-04-21T15:05:08.555Z</time>
      </trkpt>
      <trkpt lat="44.11152" lon="6.32351">
        <ele>1090.45</ele>
        <time>2024-04-21T15:05:14.827Z</time>
      </trkpt>
      <trkpt lat="44.11177" lon="6.3236">
        <ele>1088.32</ele>
        <time>2024-04-21T15:05:21.110Z</time>
      </trkpt>
      <trkpt lat="44.11195" lon="6.32377">
        <ele>1086.18</ele>
        <time>2024-04-21T15:05:27.403Z</time>
      </trkpt>
      <trkpt lat="44.11213" lon="6.32378">
        <ele>1084.03</ele>
        <time>2024-04-21T15:05:33.704Z</time>
      </trkpt>
      <trkpt lat="44.11234" lon="6.32379">
        <ele>1081.64</ele>
        <time>2024-04-21T15:05:40.014Z</time>
      </trkpt>
      <trkpt lat="44.11262" lon="6.32364">
        <ele>1079.12</ele>
        <time>2024-04-21T15:05:46.338Z</time>
      </trkpt>
      <trkpt lat="44.11282" lon="6.32362">
        <ele>1076.42</ele>
        <time>2024-04-21T15:05:52.670Z</time>
      </trkpt>
      <trkpt lat="44.11299" lon="6.32348">
        <ele>1073.79</ele>
        <time>2024-04-21T15:05:59.011Z</time>
      </trkpt>
      <trkpt lat="44.11321" lon="6.32336">
        <ele>1070.95</ele>
        <time>2024-04-21T15:06:05.363Z</time>
      </trkpt>
      <trkpt lat="44.11339" lon="6.32328">
        <ele>1068.03</ele>
        <time>2024-04-21T15:06:11.723Z</time>
      </trkpt>
      <trkpt lat="44.11379" lon="6.32308">
        <ele>1064.92</ele>
        <time>2024-04-21T15:06:18.102Z</time>
      </trkpt>
      <trkpt lat="44.11395" lon="6.32294">
        <ele>1061.46</ele>
        <time>2024-04-21T15:06:24.489Z</time>
      </trkpt>
      <trkpt lat="44.11397" lon="6.32332">
        <ele>1057.9</ele>
        <time>2024-04-21T15:06:30.889Z</time>
      </trkpt>
      <trkpt lat="44.11397" lon="6.32378">
        <ele>1054.03</ele>
        <time>2024-04-21T15:06:37.303Z</time>
      </trkpt>
      <trkpt lat="44.11416" lon="6.32394">
        <ele>1050.22</ele>
        <time>2024-04-21T15:06:43.727Z</time>
      </trkpt>
      <trkpt lat="44.11453" lon="6.32428">
        <ele>1045.88</ele>
        <time>2024-04-21T15:06:50.171Z</time>
      </trkpt>
      <trkpt lat="44.11473" lon="6.32435">
        <ele>1041.91</ele>
        <time>2024-04-21T15:06:56.624Z</time>
      </trkpt>
      <trkpt lat="44.11487" lon="6.32454">
        <ele>1037.86</ele>
        <time>2024-04-21T15:07:03.086Z</time>
      </trkpt>
      <trkpt lat="44.11498" lon="6.32429">
        <ele>1034.24</ele>
        <time>2024-04-21T15:07:09.557Z</time>
      </trkpt>
      <trkpt lat="44.11509" lon="6.32452">
        <ele>1030.3</ele>
        <time>2024-04-21T15:07:16.037Z</time>
      </trkpt>
      <trkpt lat="44.11546" lon="6.32437">
        <ele>1026.25</ele>
        <time>2024-04-21T15:07:22.534Z</time>
      </trkpt>
      <trkpt lat="44.11569" lon="6.32426">
        <ele>1022.45</ele>
        <time>2024-04-21T15:07:29.042Z</time>
      </trkpt>
      <trkpt lat="44.11577" lon="6.32403">
        <ele>1019.17</ele>
        <time>2024-04-21T15:07:35.558Z</time>
      </trkpt>
      <trkpt lat="44.11597" lon="6.32422">
        <ele>1015.41</ele>
        <time>2024-04-21T15:07:42.085Z</time>
      </trkpt>
      <trkpt lat="44.11652" lon="6.32423">
        <ele>1012.08</ele>
        <time>2024-04-21T15:07:48.636Z</time>
      </trkpt>
      <trkpt lat="44.11666" lon="6.32361">
        <ele>1008.94</ele>
        <time>2024-04-21T15:07:55.208Z</time>
      </trkpt>
      <trkpt lat="44.11711" lon="6.32336">
        <ele>1005.45</ele>
        <time>2024-04-21T15:08:01.801Z</time>
      </trkpt>
      <trkpt lat="44.11732" lon="6.32327">
        <ele>1002.45</ele>
        <time>2024-04-21T15:08:08.404Z</time>
      </trkpt>
      <trkpt lat="44.11755" lon="6.32324">
        <ele>999.32</ele>
        <time>2024-04-21T15:08:15.017Z</time>
      </trkpt>
      <trkpt lat="44.1176" lon="6.323">
        <ele>996.62</ele>
        <time>2024-04-21T15:08:21.639Z</time>
      </trkpt>
      <trkpt lat="44.1177" lon="6.32278">
        <ele>993.94</ele>
        <time>2024-04-21T15:08:28.269Z</time>
      </trkpt>
      <trkpt lat="44.11792" lon="6.32288">
        <ele>991.15</ele>
        <time>2024-04-21T15:08:34.909Z</time>
      </trkpt>
      <trkpt lat="44.1182" lon="6.3229">
        <ele>988.57</ele>
        <time>2024-04-21T15:08:41.562Z</time>
      </trkpt>
      <trkpt lat="44.11838" lon="6.32244">
        <ele>986.85</ele>
        <time>2024-04-21T15:08:48.231Z</time>
      </trkpt>
      <trkpt lat="44.11882" lon="6.32206">
        <ele>984.3</ele>
        <time>2024-04-21T15:08:54.923Z</time>
      </trkpt>
      <trkpt lat="44.11895" lon="6.32182">
        <ele>982.09</ele>
        <time>2024-04-21T15:09:01.625Z</time>
      </trkpt>
      <trkpt lat="44.11868" lon="6.32145">
        <ele>980.56</ele>
        <time>2024-04-21T15:09:08.343Z</time>
      </trkpt>
      <trkpt lat="44.11889" lon="6.32141">
        <ele>978.3</ele>
        <time>2024-04-21T15:09:15.071Z</time>
      </trkpt>
      <trkpt lat="44.11912" lon="6.32133">
        <ele>975.98</ele>
        <time>2024-04-21T15:09:21.809Z</time>
      </trkpt>
      <trkpt lat="44.11928" lon="6.32115">
        <ele>973.84</ele>
        <time>2024-04-21T15:09:28.557Z</time>
      </trkpt>
      <trkpt lat="44.11903" lon="6.32098">
        <ele>972.27</ele>
        <time>2024-04-21T15:09:35.317Z</time>
      </trkpt>
      <trkpt lat="44.11913" lon="6.32071">
        <ele>970.1</ele>
        <time>2024-04-21T15:09:42.087Z</time>
      </trkpt>
      <trkpt lat="44.11932" lon="6.32067">
        <ele>968.09</ele>
        <time>2024-04-21T15:09:48.866Z</time>
      </trkpt>
      <trkpt lat="44.11965" lon="6.32086">
        <ele>966.11</ele>
        <time>2024-04-21T15:09:55.660Z</time>
      </trkpt>
      <trkpt lat="44.11978" lon="6.32103">
        <ele>964.39</ele>
        <time>2024-04-21T15:10:02.462Z</time>
      </trkpt>
      <trkpt lat="44.11995" lon="6.32117">
        <ele>962.59</ele>
        <time>2024-04-21T15:10:09.273Z</time>
      </trkpt>
      <trkpt lat="44.12014" lon="6.3211">
        <ele>960.92</ele>
        <time>2024-04-21T15:10:16.093Z</time>
      </trkpt>
      <trkpt lat="44.12036" lon="6.32142">
        <ele>958.79</ele>
        <time>2024-04-21T15:10:22.927Z</time>
      </trkpt>
      <trkpt lat="44.12078" lon="6.3217">
        <ele>957.01</ele>
        <time>2024-04-21T15:10:29.782Z</time>
      </trkpt>
      <trkpt lat="44.12099" lon="6.32173">
        <ele>955.63</ele>
        <time>2024-04-21T15:10:36.646Z</time>
      </trkpt>
      <trkpt lat="44.1213" lon="6.32183">
        <ele>954.32</ele>
        <time>2024-04-21T15:10:43.524Z</time>
      </trkpt>
      <trkpt lat="44.12158" lon="6.32167">
        <ele>953.08</ele>
        <time>2024-04-21T15:10:50.416Z</time>
      </trkpt>
      <trkpt lat="44.12155" lon="6.32136">
        <ele>951.83</ele>
        <time>2024-04-21T15:10:57.318Z</time>
      </trkpt>
      <trkpt lat="44.12135" lon="6.32102">
        <ele>950.42</ele>
        <time>2024-04-21T15:11:04.234Z</time>
      </trkpt>
      <trkpt lat="44.12124" lon="6.32079">
        <ele>949.17</ele>
        <time>2024-04-21T15:11:11.158Z</time>
      </trkpt>
      <trkpt lat="44.12098" lon="6.32041">
        <ele>948.07</ele>
        <time>2024-04-21T15:11:18.099Z</time>
      </trkpt>
      <trkpt lat="44.12091" lon="6.32003">
        <ele>947.08</ele>
        <time>2024-04-21T15:11:25.053Z</time>
      </trkpt>
      <trkpt lat="44.12078" lon="6.31963">
        <ele>946.22</ele>
        <time>2024-04-21T15:11:32.021Z</time>
      </trkpt>
      <trkpt lat="44.12067" lon="6.31939">
        <ele>945.45</ele>
        <time>2024-04-21T15:11:38.998Z</time>
      </trkpt>
      <trkpt lat="44.12041" lon="6.31942">
        <ele>944.88</ele>
        <time>2024-04-21T15:11:45.987Z</time>
      </trkpt>
      <trkpt lat="44.1202" lon="6.31939">
        <ele>944.37</ele>
        <time>2024-04-21T15:11:52.985Z</time>
      </trkpt>
      <trkpt lat="44.1202" lon="6.31939">
        <ele>944.36</ele>
        <time>2024-04-21T15:11:59.983Z</time>
      </trkpt>
      <trkpt lat="44.1202" lon="6.31939">
        <ele>944.36</ele>
        <time>2024-04-21T15:12:06.981Z</time>
      </trkpt>
      <trkpt lat="44.1201" lon="6.31904">
        <ele>943.66</ele>
        <time>2024-04-21T15:12:13.991Z</time>
      </trkpt>
      <trkpt lat="44.12004" lon="6.31873">
        <ele>943.16</ele>
        <time>2024-04-21T15:12:21.012Z</time>
      </trkpt>
      <trkpt lat="44.11987" lon="6.31851">
        <ele>942.87</ele>
        <time>2024-04-21T15:12:28.043Z</time>
      </trkpt>
      <trkpt lat="44.11991" lon="6.31822">
        <ele>942.66</ele>
        <time>2024-04-21T15:12:35.083Z</time>
      </trkpt>
      <trkpt lat="44.11989" lon="6.31778">
        <ele>942.63</ele>
        <time>2024-04-21T15:12:42.138Z</time>
      </trkpt>
      <trkpt lat="44.11966" lon="6.31735">
        <ele>942.8</ele>
        <time>2024-04-21T15:12:49.210Z</time>
      </trkpt>
      <trkpt lat="44.11934" lon="6.3171">
        <ele>942.62</ele>
        <time>2024-04-21T15:12:56.298Z</time>
      </trkpt>
      <trkpt lat="44.11911" lon="6.31701">
        <ele>942.7</ele>
        <time>2024-04-21T15:13:03.397Z</time>
      </trkpt>
      <trkpt lat="44.11887" lon="6.31724">
        <ele>943.2</ele>
        <time>2024-04-21T15:13:10.509Z</time>
      </trkpt>
      <trkpt lat="44.11889" lon="6.31676">
        <ele>943.46</ele>
        <time>2024-04-21T15:13:17.636Z</time>
      </trkpt>
      <trkpt lat="44.11877" lon="6.31659">
        <ele>944.07</ele>
        <time>2024-04-21T15:13:24.770Z</time>
      </trkpt>
      <trkpt lat="44.11869" lon="6.31634">
        <ele>944.93</ele>
        <time>2024-04-21T15:13:31.913Z</time>
      </trkpt>
      <trkpt lat="44.11876" lon="6.31606">
        <ele>945.53</ele>
        <time>2024-04-21T15:13:39.065Z</time>
      </trkpt>
      <trkpt lat="44.1187" lon="6.31576">
        <ele>946.31</ele>
        <time>2024-04-21T15:13:46.228Z</time>
      </trkpt>
      <trkpt lat="44.11848" lon="6.31571">
        <ele>947.55</ele>
        <time>2024-04-21T15:13:53.400Z</time>
      </trkpt>
      <trkpt lat="44.11823" lon="6.31565">
        <ele>948.68</ele>
        <time>2024-04-21T15:14:00.584Z</time>
      </trkpt>
      <trkpt lat="44.1181" lon="6.31538">
        <ele>949.44</ele>
        <time>2024-04-21T15:14:07.778Z</time>
      </trkpt>
      <trkpt lat="44.11813" lon="6.31512">
        <ele>950.14</ele>
        <time>2024-04-21T15:14:14.981Z</time>
      </trkpt>
      <trkpt lat="44.11816" lon="6.31482">
        <ele>950.88</ele>
        <time>2024-04-21T15:14:22.193Z</time>
      </trkpt>
      <trkpt lat="44.11788" lon="6.31459">
        <ele>951.89</ele>
        <time>2024-04-21T15:14:29.420Z</time>
      </trkpt>
      <trkpt lat="44.11772" lon="6.31425">
        <ele>952.81</ele>
        <time>2024-04-21T15:14:36.660Z</time>
      </trkpt>
      <trkpt lat="44.11759" lon="6.31386">
        <ele>953.85</ele>
        <time>2024-04-21T15:14:43.914Z</time>
      </trkpt>
      <trkpt lat="44.11748" lon="6.3136">
        <ele>954.99</ele>
        <time>2024-04-21T15:14:51.177Z</time>
      </trkpt>
      <trkpt lat="44.11772" lon="6.31319">
        <ele>956.23</ele>
        <time>2024-04-21T15:14:58.457Z</time>
      </trkpt>
      <trkpt lat="44.11779" lon="6.31268">
        <ele>957.62</ele>
        <time>2024-04-21T15:15:05.754Z</time>
      </trkpt>
      <trkpt lat="44.11796" lon="6.31244">
        <ele>959.13</ele>
        <time>2024-04-21T15:15:13.061Z</time>
      </trkpt>
      <trkpt lat="44.11814" lon="6.31246">
        <ele>960.7</ele>
        <time>2024-04-21T15:15:20.377Z</time>
      </trkpt>
      <trkpt lat="44.11816" lon="6.31214">
        <ele>962.42</ele>
        <time>2024-04-21T15:15:27.703Z</time>
      </trkpt>
      <trkpt lat="44.11813" lon="6.31186">
        <ele>964.28</ele>
        <time>2024-04-21T15:15:35.038Z</time>
      </trkpt>
      <trkpt lat="44.11815" lon="6.31155">
        <ele>966.16</ele>
        <time>2024-04-21T15:15:42.383Z</time>
      </trkpt>
      <trkpt lat="44.11821" lon="6.31188">
        <ele>967.59</ele>
        <time>2024-04-21T15:15:49.739Z</time>
      </trkpt>
      <trkpt lat="44.11839" lon="6.31209">
        <ele>969.29</ele>
        <time>2024-04-21T15:15:57.105Z</time>
      </trkpt>
      <trkpt lat="44.11854" lon="6.31226">
        <ele>971.05</ele>
        <time>2024-04-21T15:16:04.480Z</time>
      </trkpt>
      <trkpt lat="44.11873" lon="6.31233">
        <ele>972.98</ele>
        <time>2024-04-21T15:16:11.863Z</time>
      </trkpt>
      <trkpt lat="44.119" lon="6.31245">
        <ele>975.02</ele>
        <time>2024-04-21T15:16:19.259Z</time>
      </trkpt>
      <trkpt lat="44.11924" lon="6.31239">
        <ele>977.27</ele>
        <time>2024-04-21T15:16:26.666Z</time>
      </trkpt>
      <trkpt lat="44.11949" lon="6.31264">
        <ele>979.15</ele>
        <time>2024-04-21T15:16:34.086Z</time>
      </trkpt>
      <trkpt lat="44.11974" lon="6.31276">
        <ele>981.17</ele>
        <time>2024-04-21T15:16:41.518Z</time>
      </trkpt>
      <trkpt lat="44.11993" lon="6.31283">
        <ele>983.23</ele>
        <time>2024-04-21T15:16:48.959Z</time>
      </trkpt>
      <trkpt lat="44.12013" lon="6.31294">
        <ele>985.22</ele>
        <time>2024-04-21T15:16:56.410Z</time>
      </trkpt>
      <trkpt lat="44.12023" lon="6.31271">
        <ele>987.59</ele>
        <time>2024-04-21T15:17:03.869Z</time>
      </trkpt>
      <trkpt lat="44.1204" lon="6.31283">
        <ele>989.54</ele>
        <time>2024-04-21T15:17:11.337Z</time>
      </trkpt>
      <trkpt lat="44.12024" lon="6.31249">
        <ele>992.09</ele>
        <time>2024-04-21T15:17:18.818Z</time>
      </trkpt>
      <trkpt lat="44.12046" lon="6.31243">
        <ele>994.46</ele>
        <time>2024-04-21T15:17:26.309Z</time>
      </trkpt>
      <trkpt lat="44.12044" lon="6.31212">
        <ele>997</ele>
        <time>2024-04-21T15:17:33.810Z</time>
      </trkpt>
      <trkpt lat="44.12035" lon="6.31183">
        <ele>999.27</ele>
        <time>2024-04-21T15:17:41.321Z</time>
      </trkpt>
      <trkpt lat="44.12003" lon="6.31161">
        <ele>1001.39</ele>
        <time>2024-04-21T15:17:48.848Z</time>
      </trkpt>
      <trkpt lat="44.11979" lon="6.31135">
        <ele>1003.58</ele>
        <time>2024-04-21T15:17:56.388Z</time>
      </trkpt>
      <trkpt lat="44.11967" lon="6.31104">
        <ele>1005.94</ele>
        <time>2024-04-21T15:18:03.940Z</time>
      </trkpt>
      <trkpt lat="44.11937" lon="6.31072">
        <ele>1008.02</ele>
        <time>2024-04-21T15:18:11.508Z</time>
      </trkpt>
      <trkpt lat="44.1193" lon="6.31044">
        <ele>1010.28</ele>
        <time>2024-04-21T15:18:19.086Z</time>
      </trkpt>
      <trkpt lat="44.11972" lon="6.31067">
        <ele>1012.82</ele>
        <time>2024-04-21T15:18:26.683Z</time>
      </trkpt>
      <trkpt lat="44.11989" lon="6.31086">
        <ele>1015</ele>
        <time>2024-04-21T15:18:34.290Z</time>
      </trkpt>
      <trkpt lat="44.12015" lon="6.31089">
        <ele>1017.2</ele>
        <time>2024-04-21T15:18:41.909Z</time>
      </trkpt>
      <trkpt lat="44.12011" lon="6.3106">
        <ele>1019.69</ele>
        <time>2024-04-21T15:18:49.537Z</time>
      </trkpt>
      <trkpt lat="44.12032" lon="6.31055">
        <ele>1021.89</ele>
        <time>2024-04-21T15:18:57.175Z</time>
      </trkpt>
      <trkpt lat="44.1202" lon="6.31026">
        <ele>1024.44</ele>
        <time>2024-04-21T15:19:04.823Z</time>
      </trkpt>
      <trkpt lat="44.12002" lon="6.31004">
        <ele>1026.79</ele>
        <time>2024-04-21T15:19:12.482Z</time>
      </trkpt>
      <trkpt lat="44.11994" lon="6.30973">
        <ele>1029.28</ele>
        <time>2024-04-21T15:19:20.152Z</time>
      </trkpt>
      <trkpt lat="44.11988" lon="6.30935">
        <ele>1031.93</ele>
        <time>2024-04-21T15:19:27.834Z</time>
      </trkpt>
      <trkpt lat="44.11978" lon="6.309">
        <ele>1034.48</ele>
        <time>2024-04-21T15:19:35.528Z</time>
      </trkpt>
      <trkpt lat="44.11963" lon="6.3086">
        <ele>1036.95</ele>
        <time>2024-04-21T15:19:43.236Z</time>
      </trkpt>
      <trkpt lat="44.11933" lon="6.30823">
        <ele>1039.41</ele>
        <time>2024-04-21T15:19:50.962Z</time>
      </trkpt>
      <trkpt lat="44.11917" lon="6.30807">
        <ele>1041.82</ele>
        <time>2024-04-21T15:19:58.697Z</time>
      </trkpt>
      <trkpt lat="44.11905" lon="6.30784">
        <ele>1044.37</ele>
        <time>2024-04-21T15:20:06.441Z</time>
      </trkpt>
      <trkpt lat="44.11885" lon="6.30751">
        <ele>1046.76</ele>
        <time>2024-04-21T15:20:14.199Z</time>
      </trkpt>
      <trkpt lat="44.11874" lon="6.30728">
        <ele>1049.22</ele>
        <time>2024-04-21T15:20:21.966Z</time>
      </trkpt>
      <trkpt lat="44.11892" lon="6.30732">
        <ele>1051.88</ele>
        <time>2024-04-21T15:20:29.741Z</time>
      </trkpt>
      <trkpt lat="44.11908" lon="6.30758">
        <ele>1054.38</ele>
        <time>2024-04-21T15:20:37.527Z</time>
      </trkpt>
      <trkpt lat="44.11932" lon="6.30772">
        <ele>1056.99</ele>
        <time>2024-04-21T15:20:45.324Z</time>
      </trkpt>
      <trkpt lat="44.11957" lon="6.30787">
        <ele>1059.43</ele>
        <time>2024-04-21T15:20:53.134Z</time>
      </trkpt>
      <trkpt lat="44.11978" lon="6.30773">
        <ele>1062</ele>
        <time>2024-04-21T15:21:00.954Z</time>
      </trkpt>
      <trkpt lat="44.11977" lon="6.30741">
        <ele>1064.8</ele>
        <time>2024-04-21T15:21:08.784Z</time>
      </trkpt>
      <trkpt lat="44.11955" lon="6.30699">
        <ele>1067.74</ele>
        <time>2024-04-21T15:21:16.631Z</time>
      </trkpt>
      <trkpt lat="44.11942" lon="6.30676">
        <ele>1070.42</ele>
        <time>2024-04-21T15:21:24.487Z</time>
      </trkpt>
      <trkpt lat="44.1192" lon="6.3065">
        <ele>1073.05</ele>
        <time>2024-04-21T15:21:32.356Z</time>
      </trkpt>
      <trkpt lat="44.11939" lon="6.30653">
        <ele>1075.75</ele>
        <time>2024-04-21T15:21:40.234Z</time>
      </trkpt>
      <trkpt lat="44.11961" lon="6.30663">
        <ele>1078.27</ele>
        <time>2024-04-21T15:21:48.122Z</time>
      </trkpt>
      <trkpt lat="44.11959" lon="6.30635">
        <ele>1080.96</ele>
        <time>2024-04-21T15:21:56.019Z</time>
      </trkpt>
      <trkpt lat="44.11974" lon="6.30612">
        <ele>1083.51</ele>
        <time>2024-04-21T15:22:03.926Z</time>
      </trkpt>
      <trkpt lat="44.11952" lon="6.30586">
        <ele>1086.07</ele>
        <time>2024-04-21T15:22:11.846Z</time>
      </trkpt>
      <trkpt lat="44.11953" lon="6.30559">
        <ele>1088.42</ele>
        <time>2024-04-21T15:22:19.775Z</time>
      </trkpt>
      <trkpt lat="44.11939" lon="6.3053">
        <ele>1090.61</ele>
        <time>2024-04-21T15:22:27.715Z</time>
      </trkpt>
      <trkpt lat="44.11925" lon="6.30486">
        <ele>1092.65</ele>
        <time>2024-04-21T15:22:35.670Z</time>
      </trkpt>
      <trkpt lat="44.11902" lon="6.30459">
        <ele>1094.32</ele>
        <time>2024-04-21T15:22:43.638Z</time>
      </trkpt>
      <trkpt lat="44.11923" lon="6.30458">
        <ele>1096.06</ele>
        <time>2024-04-21T15:22:51.616Z</time>
      </trkpt>
      <trkpt lat="44.11946" lon="6.30462">
        <ele>1097.6</ele>
        <time>2024-04-21T15:22:59.604Z</time>
      </trkpt>
      <trkpt lat="44.11969" lon="6.30463">
        <ele>1098.87</ele>
        <time>2024-04-21T15:23:07.602Z</time>
      </trkpt>
      <trkpt lat="44.11989" lon="6.30452">
        <ele>1100</ele>
        <time>2024-04-21T15:23:15.610Z</time>
      </trkpt>
      <trkpt lat="44.11999" lon="6.30424">
        <ele>1100.84</ele>
        <time>2024-04-21T15:23:23.628Z</time>
      </trkpt>
      <trkpt lat="44.11995" lon="6.3038">
        <ele>1101.25</ele>
        <time>2024-04-21T15:23:31.660Z</time>
      </trkpt>
      <trkpt lat="44.12005" lon="6.30317">
        <ele>1101.07</ele>
        <time>2024-04-21T15:23:39.713Z</time>
      </trkpt>
      <trkpt lat="44.12007" lon="6.3029">
        <ele>1100.84</ele>
        <time>2024-04-21T15:23:47.774Z</time>
      </trkpt>
      <trkpt lat="44.11999" lon="6.3026">
        <ele>1100.38</ele>
        <time>2024-04-21T15:23:55.845Z</time>
      </trkpt>
      <trkpt lat="44.11977" lon="6.30158">
        <ele>1099.85</ele>
        <time>2024-04-21T15:24:03.951Z</time>
      </trkpt>
      <trkpt lat="44.1198" lon="6.30131">
        <ele>1099.08</ele>
        <time>2024-04-21T15:24:12.065Z</time>
      </trkpt>
      <trkpt lat="44.11982" lon="6.30104">
        <ele>1097.99</ele>
        <time>2024-04-21T15:24:20.188Z</time>
      </trkpt>
      <trkpt lat="44.11963" lon="6.30074">
        <ele>1096.49</ele>
        <time>2024-04-21T15:24:28.324Z</time>
      </trkpt>
      <trkpt lat="44.11956" lon="6.30046">
        <ele>1094.72</ele>
        <time>2024-04-21T15:24:36.469Z</time>
      </trkpt>
      <trkpt lat="44.11933" lon="6.29981">
        <ele>1092.29</ele>
        <time>2024-04-21T15:24:44.638Z</time>
      </trkpt>
      <trkpt lat="44.11951" lon="6.29929">
        <ele>1089.42</ele>
        <time>2024-04-21T15:24:52.825Z</time>
      </trkpt>
      <trkpt lat="44.1197" lon="6.29906">
        <ele>1086.26</ele>
        <time>2024-04-21T15:25:01.023Z</time>
      </trkpt>
      <trkpt lat="44.11976" lon="6.29873">
        <ele>1082.39</ele>
        <time>2024-04-21T15:25:09.232Z</time>
      </trkpt>
      <trkpt lat="44.11983" lon="6.29831">
        <ele>1078.14</ele>
        <time>2024-04-21T15:25:17.455Z</time>
      </trkpt>
      <trkpt lat="44.11979" lon="6.29801">
        <ele>1073.68</ele>
        <time>2024-04-21T15:25:25.688Z</time>
      </trkpt>
      <trkpt lat="44.11977" lon="6.29773">
        <ele>1068.82</ele>
        <time>2024-04-21T15:25:33.930Z</time>
      </trkpt>
      <trkpt lat="44.11976" lon="6.29735">
        <ele>1063.55</ele>
        <time>2024-04-21T15:25:42.184Z</time>
      </trkpt>
      <trkpt lat="44.11964" lon="6.29702">
        <ele>1057.89</ele>
        <time>2024-04-21T15:25:50.450Z</time>
      </trkpt>
      <trkpt lat="44.11955" lon="6.29668">
        <ele>1051.75</ele>
        <time>2024-04-21T15:25:58.727Z</time>
      </trkpt>
      <trkpt lat="44.11957" lon="6.29643">
        <ele>1045.07</ele>
        <time>2024-04-21T15:26:07.012Z</time>
      </trkpt>
      <trkpt lat="44.11971" lon="6.29614">
        <ele>1037.66</ele>
        <time>2024-04-21T15:26:15.309Z</time>
      </trkpt>
      <trkpt lat="44.11959" lon="6.29587">
        <ele>1030.29</ele>
        <time>2024-04-21T15:26:23.616Z</time>
      </trkpt>
      <trkpt lat="44.11933" lon="6.29535">
        <ele>1022.28</ele>
        <time>2024-04-21T15:26:31.943Z</time>
      </trkpt>
      <trkpt lat="44.11926" lon="6.29484">
        <ele>1013.81</ele>
        <time>2024-04-21T15:26:40.287Z</time>
      </trkpt>
      <trkpt lat="44.11915" lon="6.29451">
        <ele>1005.23</ele>
        <time>2024-04-21T15:26:48.643Z</time>
      </trkpt>
      <trkpt lat="44.119" lon="6.29428">
        <ele>996.51</ele>
        <time>2024-04-21T15:26:57.008Z</time>
      </trkpt>
      <trkpt lat="44.11922" lon="6.29415">
        <ele>988.04</ele>
        <time>2024-04-21T15:27:05.384Z</time>
      </trkpt>
      <trkpt lat="44.11925" lon="6.2939">
        <ele>979.08</ele>
        <time>2024-04-21T15:27:13.768Z</time>
      </trkpt>
      <trkpt lat="44.11946" lon="6.29369">
        <ele>969.71</ele>
        <time>2024-04-21T15:27:22.164Z</time>
      </trkpt>
      <trkpt lat="44.11944" lon="6.29343">
        <ele>960.75</ele>
        <time>2024-04-21T15:27:30.568Z</time>
      </trkpt>
      <trkpt lat="44.11948" lon="6.29315">
        <ele>951.61</ele>
        <time>2024-04-21T15:27:38.981Z</time>
      </trkpt>
      <trkpt lat="44.11934" lon="6.29292">
        <ele>943.16</ele>
        <time>2024-04-21T15:27:47.404Z</time>
      </trkpt>
      <trkpt lat="44.11911" lon="6.29288">
        <ele>935.21</ele>
        <time>2024-04-21T15:27:55.837Z</time>
      </trkpt>
      <trkpt lat="44.11898" lon="6.29262">
        <ele>926.83</ele>
        <time>2024-04-21T15:28:04.280Z</time>
      </trkpt>
      <trkpt lat="44.11878" lon="6.2925">
        <ele>918.91</ele>
        <time>2024-04-21T15:28:12.733Z</time>
      </trkpt>
      <trkpt lat="44.11856" lon="6.29239">
        <ele>911.29</ele>
        <time>2024-04-21T15:28:21.197Z</time>
      </trkpt>
      <trkpt lat="44.1183" lon="6.29214">
        <ele>904.05</ele>
        <time>2024-04-21T15:28:29.674Z</time>
      </trkpt>
      <trkpt lat="44.1181" lon="6.29201">
        <ele>897.44</ele>
        <time>2024-04-21T15:28:38.162Z</time>
      </trkpt>
      <trkpt lat="44.11791" lon="6.29183">
        <ele>891.17</ele>
        <time>2024-04-21T15:28:46.660Z</time>
      </trkpt>
      <trkpt lat="44.11774" lon="6.29172">
        <ele>885.31</ele>
        <time>2024-04-21T15:28:55.166Z</time>
      </trkpt>
      <trkpt lat="44.11761" lon="6.2915">
        <ele>879.85</ele>
        <time>2024-04-21T15:29:03.681Z</time>
      </trkpt>
      <trkpt lat="44.11743" lon="6.29128">
        <ele>874.78</ele>
        <time>2024-04-21T15:29:12.207Z</time>
      </trkpt>
      <trkpt lat="44.11728" lon="6.29107">
        <ele>870.24</ele>
        <time>2024-04-21T15:29:20.742Z</time>
      </trkpt>
      <trkpt lat="44.11717" lon="6.29086">
        <ele>866.23</ele>
        <time>2024-04-21T15:29:29.286Z</time>
      </trkpt>
      <trkpt lat="44.11704" lon="6.29066">
        <ele>862.69</ele>
        <time>2024-04-21T15:29:37.838Z</time>
      </trkpt>
      <trkpt lat="44.11685" lon="6.29053">
        <ele>859.6</ele>
        <time>2024-04-21T15:29:46.400Z</time>
      </trkpt>
      <trkpt lat="44.1167" lon="6.29032">
        <ele>856.96</ele>
        <time>2024-04-21T15:29:54.971Z</time>
      </trkpt>
      <trkpt lat="44.11652" lon="6.28996">
        <ele>854.6</ele>
        <time>2024-04-21T15:30:03.556Z</time>
      </trkpt>
      <trkpt lat="44.11639" lon="6.28978">
        <ele>852.7</ele>
        <time>2024-04-21T15:30:12.149Z</time>
      </trkpt>
      <trkpt lat="44.11626" lon="6.28949">
        <ele>851.12</ele>
        <time>2024-04-21T15:30:20.753Z</time>
      </trkpt>
      <trkpt lat="44.11612" lon="6.28923">
        <ele>849.89</ele>
        <time>2024-04-21T15:30:29.368Z</time>
      </trkpt>
      <trkpt lat="44.11602" lon="6.2889">
        <ele>848.95</ele>
        <time>2024-04-21T15:30:37.994Z</time>
      </trkpt>
      <trkpt lat="44.11596" lon="6.28862">
        <ele>848.29</ele>
        <time>2024-04-21T15:30:46.630Z</time>
      </trkpt>
      <trkpt lat="44.11589" lon="6.28821">
        <ele>847.79</ele>
        <time>2024-04-21T15:30:55.279Z</time>
      </trkpt>
      <trkpt lat="44.11586" lon="6.28796">
        <ele>847.46</ele>
        <time>2024-04-21T15:31:03.936Z</time>
      </trkpt>
      <trkpt lat="44.11584" lon="6.28762">
        <ele>847.22</ele>
        <time>2024-04-21T15:31:12.604Z</time>
      </trkpt>
      <trkpt lat="44.1158" lon="6.2873">
        <ele>847.11</ele>
        <time>2024-04-21T15:31:21.282Z</time>
      </trkpt>
      <trkpt lat="44.11577" lon="6.28695">
        <ele>847.1</ele>
        <time>2024-04-21T15:31:29.972Z</time>
      </trkpt>
      <trkpt lat="44.11569" lon="6.2866">
        <ele>847.11</ele>
        <time>2024-04-21T15:31:38.674Z</time>
      </trkpt>
      <trkpt lat="44.11555" lon="6.28643">
        <ele>847.02</ele>
        <time>2024-04-21T15:31:47.384Z</time>
      </trkpt>
      <trkpt lat="44.11536" lon="6.28622">
        <ele>846.79</ele>
        <time>2024-04-21T15:31:56.105Z</time>
      </trkpt>
      <trkpt lat="44.1151" lon="6.28613">
        <ele>846.48</ele>
        <time>2024-04-21T15:32:04.838Z</time>
      </trkpt>
      <trkpt lat="44.11498" lon="6.28582">
        <ele>846.06</ele>
        <time>2024-04-21T15:32:13.582Z</time>
      </trkpt>
      <trkpt lat="44.11482" lon="6.28567">
        <ele>845.67</ele>
        <time>2024-04-21T15:32:22.335Z</time>
      </trkpt>
      <trkpt lat="44.11482" lon="6.28567">
        <ele>845.66</ele>
        <time>2024-04-21T15:32:31.088Z</time>
      </trkpt>
      <trkpt lat="44.11468" lon="6.28547">
        <ele>845.15</ele>
        <time>2024-04-21T15:32:39.850Z</time>
      </trkpt>
      <trkpt lat="44.11449" lon="6.2853">
        <ele>844.53</ele>
        <time>2024-04-21T15:32:48.621Z</time>
      </trkpt>
      <trkpt lat="44.11431" lon="6.28519">
        <ele>843.91</ele>
        <time>2024-04-21T15:32:57.401Z</time>
      </trkpt>
      <trkpt lat="44.11415" lon="6.28507">
        <ele>843.34</ele>
        <time>2024-04-21T15:33:06.189Z</time>
      </trkpt>
      <trkpt lat="44.11395" lon="6.28495">
        <ele>842.72</ele>
        <time>2024-04-21T15:33:14.987Z</time>
      </trkpt>
      <trkpt lat="44.11376" lon="6.28471">
        <ele>842.04</ele>
        <time>2024-04-21T15:33:23.797Z</time>
      </trkpt>
      <trkpt lat="44.1135" lon="6.28436">
        <ele>841.14</ele>
        <time>2024-04-21T15:33:32.623Z</time>
      </trkpt>
      <trkpt lat="44.11331" lon="6.2842">
        <ele>840.19</ele>
        <time>2024-04-21T15:33:41.459Z</time>
      </trkpt>
      <trkpt lat="44.11314" lon="6.28439">
        <ele>839.34</ele>
        <time>2024-04-21T15:33:50.304Z</time>
      </trkpt>
      <trkpt lat="44.11297" lon="6.2843">
        <ele>838.32</ele>
        <time>2024-04-21T15:33:59.157Z</time>
      </trkpt>
      <trkpt lat="44.11277" lon="6.28432">
        <ele>837.31</ele>
        <time>2024-04-21T15:34:08.019Z</time>
      </trkpt>
      <trkpt lat="44.11263" lon="6.28417">
        <ele>836.24</ele>
        <time>2024-04-21T15:34:16.889Z</time>
      </trkpt>
      <trkpt lat="44.11243" lon="6.28402">
        <ele>835.15</ele>
        <time>2024-04-21T15:34:25.769Z</time>
      </trkpt>
      <trkpt lat="44.11224" lon="6.28385">
        <ele>834.12</ele>
        <time>2024-04-21T15:34:34.659Z</time>
      </trkpt>
      <trkpt lat="44.11203" lon="6.28371">
        <ele>833.11</ele>
        <time>2024-04-21T15:34:43.560Z</time>
      </trkpt>
      <trkpt lat="44.11181" lon="6.28375">
        <ele>832.16</ele>
        <time>2024-04-21T15:34:52.470Z</time>
      </trkpt>
      <trkpt lat="44.11156" lon="6.28361">
        <ele>831.19</ele>
        <time>2024-04-21T15:35:01.392Z</time>
      </trkpt>
      <trkpt lat="44.1114" lon="6.28344">
        <ele>830.36</ele>
        <time>2024-04-21T15:35:10.323Z</time>
      </trkpt>
      <trkpt lat="44.11126" lon="6.28323">
        <ele>829.61</ele>
        <time>2024-04-21T15:35:19.263Z</time>
      </trkpt>
      <trkpt lat="44.11111" lon="6.283">
        <ele>829.02</ele>
        <time>2024-04-21T15:35:28.213Z</time>
      </trkpt>
      <trkpt lat="44.11097" lon="6.28269">
        <ele>828.42</ele>
        <time>2024-04-21T15:35:37.175Z</time>
      </trkpt>
      <trkpt lat="44.1108" lon="6.28247">
        <ele>827.87</ele>
        <time>2024-04-21T15:35:46.147Z</time>
      </trkpt>
      <trkpt lat="44.11071" lon="6.2822">
        <ele>827.32</ele>
        <time>2024-04-21T15:35:55.129Z</time>
      </trkpt>
      <trkpt lat="44.11083" lon="6.282">
        <ele>826.68</ele>
        <time>2024-04-21T15:36:04.119Z</time>
      </trkpt>
      <trkpt lat="44.11098" lon="6.28185">
        <ele>826.12</ele>
        <time>2024-04-21T15:36:13.118Z</time>
      </trkpt>
      <trkpt lat="44.11121" lon="6.28167">
        <ele>825.51</ele>
        <time>2024-04-21T15:36:22.129Z</time>
      </trkpt>
      <trkpt lat="44.11123" lon="6.28119">
        <ele>824.84</ele>
        <time>2024-04-21T15:36:31.155Z</time>
      </trkpt>
      <trkpt lat="44.11104" lon="6.28091">
        <ele>824.24</ele>
        <time>2024-04-21T15:36:40.193Z</time>
      </trkpt>
      <trkpt lat="44.1109" lon="6.28069">
        <ele>823.49</ele>
        <time>2024-04-21T15:36:49.241Z</time>
      </trkpt>
      <trkpt lat="44.11095" lon="6.28041">
        <ele>822.68</ele>
        <time>2024-04-21T15:36:58.298Z</time>
      </trkpt>
      <trkpt lat="44.11104" lon="6.28016">
        <ele>821.91</ele>
        <time>2024-04-21T15:37:07.364Z</time>
      </trkpt>
      <trkpt lat="44.11119" lon="6.27986">
        <ele>821.19</ele>
        <time>2024-04-21T15:37:16.442Z</time>
      </trkpt>
      <trkpt lat="44.11132" lon="6.27966">
        <ele>820.51</ele>
        <time>2024-04-21T15:37:25.528Z</time>
      </trkpt>
      <trkpt lat="44.11144" lon="6.27943">
        <ele>819.78</ele>
        <time>2024-04-21T15:37:34.623Z</time>
      </trkpt>
      <trkpt lat="44.11149" lon="6.27892">
        <ele>819.17</ele>
        <time>2024-04-21T15:37:43.735Z</time>
      </trkpt>
      <trkpt lat="44.11136" lon="6.27872">
        <ele>817.9</ele>
        <time>2024-04-21T15:37:52.856Z</time>
      </trkpt>
      <trkpt lat="44.11114" lon="6.27849">
        <ele>816.27</ele>
        <time>2024-04-21T15:38:01.989Z</time>
      </trkpt>
      <trkpt lat="44.11096" lon="6.27828">
        <ele>814.63</ele>
        <time>2024-04-21T15:38:11.132Z</time>
      </trkpt>
      <trkpt lat="44.11076" lon="6.27816">
        <ele>812.96</ele>
        <time>2024-04-21T15:38:20.285Z</time>
      </trkpt>
      <trkpt lat="44.11063" lon="6.27784">
        <ele>811.29</ele>
        <time>2024-04-21T15:38:29.450Z</time>
      </trkpt>
      <trkpt lat="44.11059" lon="6.27748">
        <ele>809.53</ele>
        <time>2024-04-21T15:38:38.627Z</time>
      </trkpt>
      <trkpt lat="44.11056" lon="6.27721">
        <ele>807.8</ele>
        <time>2024-04-21T15:38:47.812Z</time>
      </trkpt>
      <trkpt lat="44.11053" lon="6.27693">
        <ele>805.97</ele>
        <time>2024-04-21T15:38:57.007Z</time>
      </trkpt>
      <trkpt lat="44.11061" lon="6.27654">
        <ele>803.86</ele>
        <time>2024-04-21T15:39:06.214Z</time>
      </trkpt>
      <trkpt lat="44.11054" lon="6.27618">
        <ele>801.64</ele>
        <time>2024-04-21T15:39:15.433Z</time>
      </trkpt>
      <trkpt lat="44.11031" lon="6.27605">
        <ele>799.48</ele>
        <time>2024-04-21T15:39:24.663Z</time>
      </trkpt>
      <trkpt lat="44.11033" lon="6.27578">
        <ele>797.16</ele>
        <time>2024-04-21T15:39:33.902Z</time>
      </trkpt>
      <trkpt lat="44.11031" lon="6.27553">
        <ele>794.91</ele>
        <time>2024-04-21T15:39:43.149Z</time>
      </trkpt>
      <trkpt lat="44.11048" lon="6.27565">
        <ele>792.36</ele>
        <time>2024-04-21T15:39:52.405Z</time>
      </trkpt>
      <trkpt lat="44.11069" lon="6.2757">
        <ele>789.55</ele>
        <time>2024-04-21T15:40:01.670Z</time>
      </trkpt>
      <trkpt lat="44.11096" lon="6.27576">
        <ele>786.47</ele>
        <time>2024-04-21T15:40:10.947Z</time>
      </trkpt>
      <trkpt lat="44.11108" lon="6.27602">
        <ele>783.77</ele>
        <time>2024-04-21T15:40:20.234Z</time>
      </trkpt>
      <trkpt lat="44.11115" lon="6.27637">
        <ele>781.07</ele>
        <time>2024-04-21T15:40:29.533Z</time>
      </trkpt>
      <trkpt lat="44.11129" lon="6.27618">
        <ele>777.28</ele>
        <time>2024-04-21T15:40:38.840Z</time>
      </trkpt>
      <trkpt lat="44.11145" lon="6.27592">
        <ele>773.42</ele>
        <time>2024-04-21T15:40:48.158Z</time>
      </trkpt>
      <trkpt lat="44.11153" lon="6.27564">
        <ele>769.2</ele>
        <time>2024-04-21T15:40:57.486Z</time>
      </trkpt>
      <trkpt lat="44.11172" lon="6.27538">
        <ele>764.73</ele>
        <time>2024-04-21T15:41:06.826Z</time>
      </trkpt>
      <trkpt lat="44.11194" lon="6.27508">
        <ele>759.86</ele>
        <time>2024-04-21T15:41:16.179Z</time>
      </trkpt>
      <trkpt lat="44.11214" lon="6.27482">
        <ele>754.41</ele>
        <time>2024-04-21T15:41:25.545Z</time>
      </trkpt>
      <trkpt lat="44.11235" lon="6.27465">
        <ele>748.79</ele>
        <time>2024-04-21T15:41:34.922Z</time>
      </trkpt>
      <trkpt lat="44.11254" lon="6.27447">
        <ele>742.93</ele>
        <time>2024-04-21T15:41:44.309Z</time>
      </trkpt>
      <trkpt lat="44.11273" lon="6.2746">
        <ele>737.9</ele>
        <time>2024-04-21T15:41:53.705Z</time>
      </trkpt>
      <trkpt lat="44.11289" lon="6.27441">
        <ele>731.53</ele>
        <time>2024-04-21T15:42:03.111Z</time>
      </trkpt>
      <trkpt lat="44.11303" lon="6.27458">
        <ele>726.24</ele>
        <time>2024-04-21T15:42:12.525Z</time>
      </trkpt>
      <trkpt lat="44.11316" lon="6.27482">
        <ele>720.68</ele>
        <time>2024-04-21T15:42:21.949Z</time>
      </trkpt>
      <trkpt lat="44.11334" lon="6.27494">
        <ele>714.3</ele>
        <time>2024-04-21T15:42:31.382Z</time>
      </trkpt>
      <trkpt lat="44.11366" lon="6.27506">
        <ele>707.35</ele>
        <time>2024-04-21T15:42:40.829Z</time>
      </trkpt>
      <trkpt lat="44.11373" lon="6.27531">
        <ele>702.11</ele>
        <time>2024-04-21T15:42:50.285Z</time>
      </trkpt>
      <trkpt lat="44.1139" lon="6.27551">
        <ele>696.61</ele>
        <time>2024-04-21T15:42:59.751Z</time>
      </trkpt>
      <trkpt lat="44.11411" lon="6.27596">
        <ele>691.4</ele>
        <time>2024-04-21T15:43:09.234Z</time>
      </trkpt>
      <trkpt lat="44.11412" lon="6.2763">
        <ele>687.24</ele>
        <time>2024-04-21T15:43:18.728Z</time>
      </trkpt>
      <trkpt lat="44.11427" lon="6.2765">
        <ele>683.08</ele>
        <time>2024-04-21T15:43:28.231Z</time>
      </trkpt>
      <trkpt lat="44.11424" lon="6.27574">
        <ele>679.16</ele>
        <time>2024-04-21T15:43:37.758Z</time>
      </trkpt>
      <trkpt lat="44.11418" lon="6.27529">
        <ele>675.87</ele>
        <time>2024-04-21T15:43:47.300Z</time>
      </trkpt>
      <trkpt lat="44.11407" lon="6.27487">
        <ele>672.79</ele>
        <time>2024-04-21T15:43:56.856Z</time>
      </trkpt>
      <trkpt lat="44.11386" lon="6.27412">
        <ele>670.11</ele>
        <time>2024-04-21T15:44:06.438Z</time>
      </trkpt>
      <trkpt lat="44.11381" lon="6.27396">
        <ele>667.59</ele>
        <time>2024-04-21T15:44:16.026Z</time>
      </trkpt>
      <trkpt lat="44.11354" lon="6.2732">
        <ele>665.47</ele>
        <time>2024-04-21T15:44:25.641Z</time>
      </trkpt>
      <trkpt lat="44.11343" lon="6.27252">
        <ele>663.11</ele>
        <time>2024-04-21T15:44:35.278Z</time>
      </trkpt>
      <trkpt lat="44.11329" lon="6.2723">
        <ele>661.66</ele>
        <time>2024-04-21T15:44:44.924Z</time>
      </trkpt>
      <trkpt lat="44.11327" lon="6.27197">
        <ele>660.24</ele>
        <time>2024-04-21T15:44:54.581Z</time>
      </trkpt>
      <trkpt lat="44.11322" lon="6.27164">
        <ele>659.1</ele>
        <time>2024-04-21T15:45:04.249Z</time>
      </trkpt>
      <trkpt lat="44.11298" lon="6.27118">
        <ele>658.3</ele>
        <time>2024-04-21T15:45:13.935Z</time>
      </trkpt>
      <trkpt lat="44.11248" lon="6.27051">
        <ele>657.88</ele>
        <time>2024-04-21T15:45:23.652Z</time>
      </trkpt>
      <trkpt lat="44.11197" lon="6.26989">
        <ele>657.41</ele>
        <time>2024-04-21T15:45:33.399Z</time>
      </trkpt>
      <trkpt lat="44.11176" lon="6.26922">
        <ele>656.71</ele>
        <time>2024-04-21T15:45:43.169Z</time>
      </trkpt>
      <trkpt lat="44.11141" lon="6.26841">
        <ele>656.59</ele>
        <time>2024-04-21T15:45:52.970Z</time>
      </trkpt>
      <trkpt lat="44.11169" lon="6.26802">
        <ele>656.09</ele>
        <time>2024-04-21T15:46:02.788Z</time>
      </trkpt>
      <trkpt lat="44.11174" lon="6.26782">
        <ele>656.18</ele>
        <time>2024-04-21T15:46:12.613Z</time>
      </trkpt>
      <trkpt lat="44.11217" lon="6.26756">
        <ele>656.61</ele>
        <time>2024-04-21T15:46:22.459Z</time>
      </trkpt>
      <trkpt lat="44.11255" lon="6.26734">
        <ele>657.48</ele>
        <time>2024-04-21T15:46:32.323Z</time>
      </trkpt>
      <trkpt lat="44.11234" lon="6.26695">
        <ele>657.9</ele>
        <time>2024-04-21T15:46:42.203Z</time>
      </trkpt>
      <trkpt lat="44.11215" lon="6.26666">
        <ele>658.04</ele>
        <time>2024-04-21T15:46:52.095Z</time>
      </trkpt>
      <trkpt lat="44.11142" lon="6.26566">
        <ele>657.72</ele>
        <time>2024-04-21T15:47:02.033Z</time>
      </trkpt>
      <trkpt lat="44.11081" lon="6.26494">
        <ele>657.72</ele>
        <time>2024-04-21T15:47:12.006Z</time>
      </trkpt>
      <trkpt lat="44.11063" lon="6.26474">
        <ele>658.04</ele>
        <time>2024-04-21T15:47:21.990Z</time>
      </trkpt>
      <trkpt lat="44.11026" lon="6.26433">
        <ele>658.37</ele>
        <time>2024-04-21T15:47:31.995Z</time>
      </trkpt>
      <trkpt lat="44.10961" lon="6.26354">
        <ele>658.5</ele>
        <time>2024-04-21T15:47:42.038Z</time>
      </trkpt>
      <trkpt lat="44.10943" lon="6.26339">
        <ele>659</ele>
        <time>2024-04-21T15:47:52.090Z</time>
      </trkpt>
      <trkpt lat="44.10867" lon="6.26245">
        <ele>659.85</ele>
        <time>2024-04-21T15:48:02.188Z</time>
      </trkpt>
      <trkpt lat="44.10792" lon="6.26126">
        <ele>659.67</ele>
        <time>2024-04-21T15:48:12.336Z</time>
      </trkpt>
      <trkpt lat="44.10773" lon="6.26088">
        <ele>658.94</ele>
        <time>2024-04-21T15:48:22.499Z</time>
      </trkpt>
      <trkpt lat="44.10766" lon="6.26061">
        <ele>658.05</ele>
        <time>2024-04-21T15:48:32.671Z</time>
      </trkpt>
      <trkpt lat="44.10748" lon="6.25969">
        <ele>656.56</ele>
        <time>2024-04-21T15:48:42.874Z</time>
      </trkpt>
      <trkpt lat="44.10744" lon="6.25852">
        <ele>655.14</ele>
        <time>2024-04-21T15:48:53.114Z</time>
      </trkpt>
      <trkpt lat="44.10728" lon="6.25799">
        <ele>653.57</ele>
        <time>2024-04-21T15:49:03.372Z</time>
      </trkpt>
      <trkpt lat="44.10708" lon="6.25759">
        <ele>652.21</ele>
        <time>2024-04-21T15:49:13.646Z</time>
      </trkpt>
      <trkpt lat="44.10678" lon="6.25721">
        <ele>650.65</ele>
        <time>2024-04-21T15:49:23.938Z</time>
      </trkpt>
      <trkpt lat="44.1056" lon="6.25651">
        <ele>648.83</ele>
        <time>2024-04-21T15:49:34.288Z</time>
      </trkpt>
      <trkpt lat="44.10478" lon="6.25585">
        <ele>647.19</ele>
        <time>2024-04-21T15:49:44.680Z</time>
      </trkpt>
      <trkpt lat="44.10415" lon="6.25506">
        <ele>644.53</ele>
        <time>2024-04-21T15:49:55.109Z</time>
      </trkpt>
      <trkpt lat="44.10379" lon="6.25415">
        <ele>642.08</ele>
        <time>2024-04-21T15:50:05.572Z</time>
      </trkpt>
      <trkpt lat="44.10356" lon="6.25363">
        <ele>640.12</ele>
        <time>2024-04-21T15:50:16.054Z</time>
      </trkpt>
      <trkpt lat="44.10353" lon="6.25354">
        <ele>638.89</ele>
        <time>2024-04-21T15:50:26.539Z</time>
      </trkpt>
    </trkseg>
  </trk>
</gpx>